PWSweather.com
Personal Weather Stations
Station Observations
DL5ARK
SonnebergDE

SonnebergDE

Lat: 50.34904861, Lon: 11.18112087

Elevation: 1214

Station Type: Selfmade

http://www.sumbarg.de

High Low Average
Temperature 50.6°F10.3°C 35.5°F1.9°C 43.3°F6.3°C
Dew Point 52.1°F11.2°C 41.1°F5.1°C 46.8°F8.2°C
Winds 6.9 mph 11.1 kmh Calm Calm 1.0 mph S1.6 kmh S
Wind Gusts 6.9 mph11.1 kmh -- 1.0 mph1.6 kmh
Humidity 96% 82% 89%
Pressure 29.86 in1011.2 mb 29.60 in1002.4 mb -
Precipitation 0.34 in8.6 mm - -
Hour Temp Dew Point Humidity Winds Wind Gusts Pressure Precip Precip Rate Daily Precip Total
12:01 AM 38.9°F3.8°C 43.3°F6.3°C 90% Calm Calm -- 29.74 in1007.1 mb 0.00 in0.0 mm 0.00 in0.0 mm 0.00 in0.0 mm
12:04 AM 39.1°F3.9°C 43.6°F6.4°C 90% Calm Calm -- 29.74 in1007.1 mb 0.00 in0.0 mm 0.00 in0.0 mm 0.00 in0.0 mm
12:07 AM 39.1°F3.9°C 43.2°F6.2°C 90% Calm Calm -- 29.74 in1007.1 mb 0.00 in0.0 mm 0.00 in0.0 mm 0.00 in0.0 mm
12:10 AM 39.1°F3.9°C 43.1°F6.2°C 89% Calm Calm -- 29.74 in1007.1 mb 0.00 in0.0 mm 0.00 in0.0 mm 0.00 in0.0 mm
12:13 AM 39.2°F4.0°C 43.5°F6.4°C 90% Calm Calm -- 29.74 in1007.1 mb 0.00 in0.0 mm 0.00 in0.0 mm 0.00 in0.0 mm
12:16 AM 39.5°F4.2°C 43.6°F6.4°C 91% Calm Calm -- 29.74 in1007.1 mb 0.00 in0.0 mm 0.00 in0.0 mm 0.00 in0.0 mm
12:19 AM 39.3°F4.1°C 43.3°F6.3°C 89% Calm Calm -- 29.74 in1007.1 mb 0.00 in0.0 mm 0.00 in0.0 mm 0.00 in0.0 mm
12:22 AM 39.7°F4.3°C 43.4°F6.3°C 90% Calm Calm -- 29.74 in1007.1 mb 0.00 in0.0 mm 0.00 in0.0 mm 0.00 in0.0 mm
12:25 AM 39.7°F4.3°C 43.8°F6.6°C 91% Calm Calm -- 29.74 in1007.1 mb 0.00 in0.0 mm 0.00 in0.0 mm 0.00 in0.0 mm
12:28 AM 39.4°F4.1°C 43.9°F6.6°C 91% Calm Calm -- 29.73 in1006.8 mb 0.00 in0.0 mm 0.00 in0.0 mm 0.00 in0.0 mm
12:31 AM 39.4°F4.1°C 44.0°F6.7°C 91% Calm Calm -- 29.74 in1007.1 mb 0.00 in0.0 mm 0.00 in0.0 mm 0.00 in0.0 mm
12:34 AM 39.7°F4.3°C 43.6°F6.4°C 90% Calm Calm -- 29.73 in1006.8 mb 0.00 in0.0 mm 0.00 in0.0 mm 0.00 in0.0 mm
12:37 AM 39.3°F4.1°C 43.8°F6.6°C 91% Calm Calm -- 29.73 in1006.8 mb 0.00 in0.0 mm 0.00 in0.0 mm 0.00 in0.0 mm
12:40 AM 39.3°F4.1°C 44.0°F6.7°C 91% Calm Calm -- 29.73 in1006.8 mb 0.00 in0.0 mm 0.00 in0.0 mm 0.00 in0.0 mm
12:43 AM 39.9°F4.4°C 43.9°F6.6°C 91% Calm Calm -- 29.73 in1006.8 mb 0.00 in0.0 mm 0.00 in0.0 mm 0.00 in0.0 mm
12:46 AM 39.3°F4.1°C 44.1°F6.7°C 91% Calm Calm -- 29.73 in1006.8 mb 0.00 in0.0 mm 0.00 in0.0 mm 0.00 in0.0 mm
12:49 AM 39.2°F4.0°C 43.9°F6.6°C 91% Calm Calm -- 29.73 in1006.8 mb 0.00 in0.0 mm 0.00 in0.0 mm 0.00 in0.0 mm
12:52 AM 39.4°F4.1°C 44.1°F6.7°C 92% Calm Calm -- 29.73 in1006.8 mb 0.00 in0.0 mm 0.00 in0.0 mm 0.00 in0.0 mm
12:55 AM 39.7°F4.3°C 44.0°F6.7°C 92% 1.2 mph SE1.9 kmh SE 1.2 mph1.9 kmh 29.72 in1006.4 mb 0.00 in0.0 mm 0.00 in0.0 mm 0.00 in0.0 mm
12:58 AM 39.3°F4.1°C 44.2°F6.8°C 92% 0.8 mph SE1.3 kmh SE 0.8 mph1.3 kmh 29.73 in1006.8 mb 0.00 in0.0 mm 0.00 in0.0 mm 0.00 in0.0 mm
01:01 AM 38.9°F3.8°C 44.0°F6.7°C 92% Calm Calm -- 29.73 in1006.8 mb 0.00 in0.0 mm 0.00 in0.0 mm 0.00 in0.0 mm
01:04 AM 39.3°F4.1°C 43.9°F6.6°C 91% Calm Calm -- 29.73 in1006.8 mb 0.00 in0.0 mm 0.00 in0.0 mm 0.00 in0.0 mm
01:07 AM 38.9°F3.8°C 43.9°F6.6°C 91% Calm Calm -- 29.72 in1006.4 mb 0.00 in0.0 mm 0.00 in0.0 mm 0.00 in0.0 mm
01:10 AM 39.2°F4.0°C 44.1°F6.7°C 91% Calm Calm -- 29.72 in1006.4 mb 0.00 in0.0 mm 0.00 in0.0 mm 0.00 in0.0 mm
01:13 AM 38.9°F3.8°C 43.6°F6.4°C 90% Calm Calm -- 29.72 in1006.4 mb 0.00 in0.0 mm 0.00 in0.0 mm 0.00 in0.0 mm
01:16 AM 39.4°F4.1°C 43.9°F6.6°C 91% Calm Calm -- 29.72 in1006.4 mb 0.00 in0.0 mm 0.00 in0.0 mm 0.00 in0.0 mm
01:19 AM 39.8°F4.3°C 44.3°F6.8°C 92% Calm Calm -- 29.72 in1006.4 mb 0.00 in0.0 mm 0.00 in0.0 mm 0.00 in0.0 mm
01:22 AM 39.5°F4.2°C 44.2°F6.8°C 92% 2.0 mph SSE3.2 kmh SSE 2.0 mph3.2 kmh 29.72 in1006.4 mb 0.00 in0.0 mm 0.00 in0.0 mm 0.00 in0.0 mm
01:25 AM 38.8°F3.8°C 44.1°F6.7°C 92% 0.8 mph ESE1.3 kmh ESE 0.8 mph1.3 kmh 29.72 in1006.4 mb 0.00 in0.0 mm 0.00 in0.0 mm 0.00 in0.0 mm
01:28 AM 38.5°F3.6°C 43.9°F6.6°C 91% Calm Calm -- 29.72 in1006.4 mb 0.00 in0.0 mm 0.00 in0.0 mm 0.00 in0.0 mm
01:31 AM 38.6°F3.7°C 43.5°F6.4°C 90% Calm Calm -- 29.72 in1006.4 mb 0.00 in0.0 mm 0.00 in0.0 mm 0.00 in0.0 mm
01:34 AM 38.6°F3.7°C 43.8°F6.6°C 91% Calm Calm -- 29.72 in1006.4 mb 0.00 in0.0 mm 0.00 in0.0 mm 0.00 in0.0 mm
01:37 AM 38.8°F3.8°C 43.7°F6.5°C 91% Calm Calm -- 29.72 in1006.4 mb 0.00 in0.0 mm 0.00 in0.0 mm 0.00 in0.0 mm
01:40 AM 38.2°F3.4°C 43.7°F6.5°C 91% Calm Calm -- 29.72 in1006.4 mb 0.00 in0.0 mm 0.00 in0.0 mm 0.00 in0.0 mm
01:43 AM 38.1°F3.4°C 43.4°F6.3°C 90% Calm Calm -- 29.72 in1006.4 mb 0.00 in0.0 mm 0.00 in0.0 mm 0.00 in0.0 mm
01:46 AM 38.0°F3.3°C 43.2°F6.2°C 90% Calm Calm -- 29.72 in1006.4 mb 0.00 in0.0 mm 0.00 in0.0 mm 0.00 in0.0 mm
01:49 AM 37.6°F3.1°C 43.2°F6.2°C 90% Calm Calm -- 29.72 in1006.4 mb 0.00 in0.0 mm 0.00 in0.0 mm 0.00 in0.0 mm
01:52 AM 38.0°F3.3°C 43.2°F6.2°C 91% Calm Calm -- 29.72 in1006.4 mb 0.00 in0.0 mm 0.00 in0.0 mm 0.00 in0.0 mm
01:55 AM 37.5°F3.1°C 43.1°F6.2°C 91% Calm Calm -- 29.72 in1006.4 mb 0.00 in0.0 mm 0.00 in0.0 mm 0.00 in0.0 mm
02:01 AM 37.1°F2.8°C 42.8°F6.0°C 90% Calm Calm -- 29.72 in1006.4 mb 0.00 in0.0 mm 0.00 in0.0 mm 0.00 in0.0 mm
02:04 AM 36.8°F2.7°C 42.8°F6.0°C 90% 0.4 mph ESE0.6 kmh ESE 0.4 mph0.6 kmh 29.72 in1006.4 mb 0.00 in0.0 mm 0.00 in0.0 mm 0.00 in0.0 mm
02:07 AM 36.5°F2.5°C 42.6°F5.9°C 90% Calm Calm -- 29.72 in1006.4 mb 0.00 in0.0 mm 0.00 in0.0 mm 0.00 in0.0 mm
02:10 AM 36.4°F2.4°C 42.6°F5.9°C 90% Calm Calm -- 29.71 in1006.1 mb 0.00 in0.0 mm 0.00 in0.0 mm 0.00 in0.0 mm
02:16 AM 36.3°F2.4°C 42.5°F5.8°C 90% Calm Calm -- 29.71 in1006.1 mb 0.00 in0.0 mm 0.00 in0.0 mm 0.00 in0.0 mm
02:19 AM 35.8°F2.1°C 42.1°F5.6°C 89% Calm Calm -- 29.71 in1006.1 mb 0.00 in0.0 mm 0.00 in0.0 mm 0.00 in0.0 mm
02:22 AM 35.6°F2.0°C 42.0°F5.6°C 89% Calm Calm -- 29.72 in1006.4 mb 0.00 in0.0 mm 0.00 in0.0 mm 0.00 in0.0 mm
02:25 AM 35.8°F2.1°C 42.0°F5.6°C 90% Calm Calm -- 29.71 in1006.1 mb 0.00 in0.0 mm 0.00 in0.0 mm 0.00 in0.0 mm
02:28 AM 35.5°F1.9°C 41.7°F5.4°C 89% Calm Calm -- 29.71 in1006.1 mb 0.00 in0.0 mm 0.00 in0.0 mm 0.00 in0.0 mm
02:31 AM 36.1°F2.3°C 41.8°F5.4°C 89% Calm Calm -- 29.71 in1006.1 mb 0.00 in0.0 mm 0.00 in0.0 mm 0.00 in0.0 mm
02:34 AM 35.7°F2.1°C 41.6°F5.3°C 89% Calm Calm -- 29.71 in1006.1 mb 0.00 in0.0 mm 0.00 in0.0 mm 0.00 in0.0 mm
02:37 AM 35.9°F2.2°C 41.7°F5.4°C 89% Calm Calm -- 29.71 in1006.1 mb 0.00 in0.0 mm 0.00 in0.0 mm 0.00 in0.0 mm
02:40 AM 36.1°F2.3°C 41.5°F5.3°C 89% Calm Calm -- 29.70 in1005.8 mb 0.00 in0.0 mm 0.00 in0.0 mm 0.00 in0.0 mm
02:43 AM 36.3°F2.4°C 41.8°F5.4°C 90% Calm Calm -- 29.70 in1005.8 mb 0.00 in0.0 mm 0.00 in0.0 mm 0.00 in0.0 mm
02:46 AM 36.7°F2.6°C 41.6°F5.3°C 90% Calm Calm -- 29.71 in1006.1 mb 0.00 in0.0 mm 0.00 in0.0 mm 0.00 in0.0 mm
02:49 AM 36.7°F2.6°C 41.6°F5.3°C 90% Calm Calm -- 29.70 in1005.8 mb 0.00 in0.0 mm 0.00 in0.0 mm 0.00 in0.0 mm
02:52 AM 35.8°F2.1°C 41.5°F5.3°C 88% Calm Calm -- 29.70 in1005.8 mb 0.00 in0.0 mm 0.00 in0.0 mm 0.00 in0.0 mm
02:55 AM 36.5°F2.5°C 41.4°F5.2°C 89% Calm Calm -- 29.70 in1005.8 mb 0.00 in0.0 mm 0.00 in0.0 mm 0.00 in0.0 mm
02:58 AM 36.2°F2.3°C 41.7°F5.4°C 90% Calm Calm -- 29.70 in1005.8 mb 0.00 in0.0 mm 0.00 in0.0 mm 0.00 in0.0 mm
03:01 AM 36.5°F2.5°C 41.7°F5.4°C 90% Calm Calm -- 29.70 in1005.8 mb 0.00 in0.0 mm 0.00 in0.0 mm 0.00 in0.0 mm
03:04 AM 35.9°F2.2°C 41.6°F5.3°C 90% Calm Calm -- 29.70 in1005.8 mb 0.00 in0.0 mm 0.00 in0.0 mm 0.00 in0.0 mm
03:07 AM 35.9°F2.2°C 41.3°F5.2°C 90% Calm Calm -- 29.70 in1005.8 mb 0.00 in0.0 mm 0.00 in0.0 mm 0.00 in0.0 mm
03:10 AM 37.0°F2.8°C 41.7°F5.4°C 90% 2.0 mph SSE3.2 kmh SSE 2.0 mph3.2 kmh 29.69 in1005.4 mb 0.00 in0.0 mm 0.00 in0.0 mm 0.00 in0.0 mm
03:13 AM 37.1°F2.8°C 42.0°F5.6°C 92% 2.8 mph SE4.5 kmh SE 2.8 mph4.5 kmh 29.69 in1005.4 mb 0.00 in0.0 mm 0.00 in0.0 mm 0.00 in0.0 mm
03:16 AM 37.4°F3.0°C 42.6°F5.9°C 93% 2.0 mph SE3.2 kmh SE 2.0 mph3.2 kmh 29.69 in1005.4 mb 0.00 in0.0 mm 0.00 in0.0 mm 0.00 in0.0 mm
03:19 AM 37.3°F2.9°C 42.2°F5.7°C 92% 0.8 mph SE1.3 kmh SE 0.8 mph1.3 kmh 29.69 in1005.4 mb 0.00 in0.0 mm 0.00 in0.0 mm 0.00 in0.0 mm
03:22 AM 37.6°F3.1°C 42.7°F5.9°C 93% 1.2 mph NNW1.9 kmh NNW 1.2 mph1.9 kmh 29.69 in1005.4 mb 0.00 in0.0 mm 0.00 in0.0 mm 0.00 in0.0 mm
03:25 AM 37.9°F3.3°C 42.6°F5.9°C 93% Calm Calm -- 29.69 in1005.4 mb 0.00 in0.0 mm 0.00 in0.0 mm 0.00 in0.0 mm
03:28 AM 38.4°F3.6°C 42.8°F6.0°C 93% 1.2 mph SE1.9 kmh SE 1.2 mph1.9 kmh 29.69 in1005.4 mb 0.00 in0.0 mm 0.00 in0.0 mm 0.00 in0.0 mm
03:31 AM 38.6°F3.7°C 43.3°F6.3°C 94% 0.8 mph SE1.3 kmh SE 0.8 mph1.3 kmh 29.69 in1005.4 mb 0.00 in0.0 mm 0.00 in0.0 mm 0.00 in0.0 mm
03:34 AM 39.5°F4.2°C 43.7°F6.5°C 94% 2.4 mph SE3.9 kmh SE 2.4 mph3.9 kmh 29.68 in1005.1 mb 0.00 in0.0 mm 0.00 in0.0 mm 0.00 in0.0 mm
03:37 AM 39.1°F3.9°C 43.9°F6.6°C 94% 0.8 mph SE1.3 kmh SE 0.8 mph1.3 kmh 29.68 in1005.1 mb 0.00 in0.0 mm 0.00 in0.0 mm 0.00 in0.0 mm
03:40 AM 38.3°F3.5°C 43.7°F6.5°C 93% Calm Calm -- 29.68 in1005.1 mb 0.00 in0.0 mm 0.00 in0.0 mm 0.00 in0.0 mm
03:43 AM 38.0°F3.3°C 43.7°F6.5°C 93% Calm Calm -- 29.67 in1004.7 mb 0.00 in0.0 mm 0.00 in0.0 mm 0.00 in0.0 mm
03:46 AM 38.0°F3.3°C 43.2°F6.2°C 92% Calm Calm -- 29.67 in1004.7 mb 0.00 in0.0 mm 0.00 in0.0 mm 0.00 in0.0 mm
03:49 AM 38.1°F3.4°C 43.3°F6.3°C 93% Calm Calm -- 29.67 in1004.7 mb 0.00 in0.0 mm 0.00 in0.0 mm 0.00 in0.0 mm
03:52 AM 39.1°F3.9°C 43.6°F6.4°C 94% 0.4 mph SE0.6 kmh SE 0.4 mph0.6 kmh 29.67 in1004.7 mb 0.00 in0.0 mm 0.00 in0.0 mm 0.00 in0.0 mm
03:55 AM 39.7°F4.3°C 43.5°F6.4°C 93% 1.2 mph SSE1.9 kmh SSE 1.2 mph1.9 kmh 29.67 in1004.7 mb 0.00 in0.0 mm 0.00 in0.0 mm 0.00 in0.0 mm
03:58 AM 38.5°F3.6°C 43.7°F6.5°C 93% Calm Calm -- 29.67 in1004.7 mb 0.00 in0.0 mm 0.00 in0.0 mm 0.00 in0.0 mm
04:01 AM 38.8°F3.8°C 43.6°F6.4°C 93% Calm Calm -- 29.67 in1004.7 mb 0.00 in0.0 mm 0.00 in0.0 mm 0.00 in0.0 mm
04:04 AM 38.2°F3.4°C 43.2°F6.2°C 91% Calm Calm -- 29.67 in1004.7 mb 0.00 in0.0 mm 0.00 in0.0 mm 0.00 in0.0 mm
04:07 AM 37.3°F2.9°C 43.3°F6.3°C 92% Calm Calm -- 29.67 in1004.7 mb 0.00 in0.0 mm 0.00 in0.0 mm 0.00 in0.0 mm
04:10 AM 37.5°F3.1°C 42.9°F6.1°C 92% 0.4 mph ESE0.6 kmh ESE 0.4 mph0.6 kmh 29.67 in1004.7 mb 0.00 in0.0 mm 0.00 in0.0 mm 0.00 in0.0 mm
04:13 AM 37.1°F2.8°C 42.8°F6.0°C 92% 1.2 mph ESE1.9 kmh ESE 1.2 mph1.9 kmh 29.67 in1004.7 mb 0.00 in0.0 mm 0.00 in0.0 mm 0.00 in0.0 mm
04:16 AM 37.3°F2.9°C 42.8°F6.0°C 91% Calm Calm -- 29.67 in1004.7 mb 0.00 in0.0 mm 0.00 in0.0 mm 0.00 in0.0 mm
04:19 AM 37.1°F2.8°C 42.5°F5.8°C 92% Calm Calm -- 29.67 in1004.7 mb 0.00 in0.0 mm 0.00 in0.0 mm 0.00 in0.0 mm
04:22 AM 37.1°F2.8°C 42.4°F5.8°C 91% Calm Calm -- 29.67 in1004.7 mb 0.00 in0.0 mm 0.00 in0.0 mm 0.00 in0.0 mm
04:25 AM 37.2°F2.9°C 42.7°F5.9°C 92% Calm Calm -- 29.67 in1004.7 mb 0.00 in0.0 mm 0.00 in0.0 mm 0.00 in0.0 mm
04:28 AM 37.0°F2.8°C 42.4°F5.8°C 91% Calm Calm -- 29.67 in1004.7 mb 0.00 in0.0 mm 0.00 in0.0 mm 0.00 in0.0 mm
04:31 AM 36.7°F2.6°C 42.5°F5.8°C 91% Calm Calm -- 29.67 in1004.7 mb 0.00 in0.0 mm 0.00 in0.0 mm 0.00 in0.0 mm
04:34 AM 36.3°F2.4°C 42.2°F5.7°C 91% Calm Calm -- 29.66 in1004.4 mb 0.00 in0.0 mm 0.00 in0.0 mm 0.00 in0.0 mm
04:37 AM 36.4°F2.4°C 42.0°F5.6°C 91% Calm Calm -- 29.66 in1004.4 mb 0.00 in0.0 mm 0.00 in0.0 mm 0.00 in0.0 mm
04:40 AM 36.7°F2.6°C 42.0°F5.6°C 91% Calm Calm -- 29.66 in1004.4 mb 0.00 in0.0 mm 0.00 in0.0 mm 0.00 in0.0 mm
04:43 AM 37.1°F2.8°C 42.2°F5.7°C 91% Calm Calm -- 29.66 in1004.4 mb 0.00 in0.0 mm 0.00 in0.0 mm 0.00 in0.0 mm
04:46 AM 37.7°F3.2°C 42.0°F5.6°C 91% Calm Calm -- 29.67 in1004.7 mb 0.00 in0.0 mm 0.00 in0.0 mm 0.00 in0.0 mm
04:49 AM 37.5°F3.1°C 42.3°F5.7°C 92% Calm Calm -- 29.67 in1004.7 mb 0.00 in0.0 mm 0.00 in0.0 mm 0.00 in0.0 mm
04:52 AM 37.0°F2.8°C 42.2°F5.7°C 92% Calm Calm -- 29.67 in1004.7 mb 0.00 in0.0 mm 0.00 in0.0 mm 0.00 in0.0 mm
04:55 AM 36.6°F2.6°C 42.2°F5.7°C 92% Calm Calm -- 29.67 in1004.7 mb 0.00 in0.0 mm 0.00 in0.0 mm 0.00 in0.0 mm
04:58 AM 36.6°F2.6°C 41.8°F5.4°C 91% Calm Calm -- 29.66 in1004.4 mb 0.00 in0.0 mm 0.00 in0.0 mm 0.00 in0.0 mm
05:01 AM 36.6°F2.6°C 41.9°F5.5°C 91% Calm Calm -- 29.66 in1004.4 mb 0.00 in0.0 mm 0.00 in0.0 mm 0.00 in0.0 mm
05:04 AM 36.6°F2.6°C 42.0°F5.6°C 91% Calm Calm -- 29.67 in1004.7 mb 0.00 in0.0 mm 0.00 in0.0 mm 0.00 in0.0 mm
05:07 AM 37.0°F2.8°C 42.1°F5.6°C 91% Calm Calm -- 29.67 in1004.7 mb 0.00 in0.0 mm 0.00 in0.0 mm 0.00 in0.0 mm
05:10 AM 37.2°F2.9°C 42.1°F5.6°C 92% Calm Calm -- 29.66 in1004.4 mb 0.00 in0.0 mm 0.00 in0.0 mm 0.00 in0.0 mm
05:13 AM 37.3°F2.9°C 42.0°F5.6°C 91% Calm Calm -- 29.66 in1004.4 mb 0.00 in0.0 mm 0.00 in0.0 mm 0.00 in0.0 mm
05:16 AM 37.4°F3.0°C 42.0°F5.6°C 91% Calm Calm -- 29.66 in1004.4 mb 0.00 in0.0 mm 0.00 in0.0 mm 0.00 in0.0 mm
05:19 AM 37.2°F2.9°C 41.6°F5.3°C 90% Calm Calm -- 29.66 in1004.4 mb 0.00 in0.0 mm 0.00 in0.0 mm 0.00 in0.0 mm
05:22 AM 37.2°F2.9°C 42.0°F5.6°C 91% Calm Calm -- 29.66 in1004.4 mb 0.00 in0.0 mm 0.00 in0.0 mm 0.00 in0.0 mm
05:25 AM 37.4°F3.0°C 42.0°F5.6°C 91% Calm Calm -- 29.66 in1004.4 mb 0.00 in0.0 mm 0.00 in0.0 mm 0.00 in0.0 mm
05:28 AM 37.6°F3.1°C 42.1°F5.6°C 92% Calm Calm -- 29.66 in1004.4 mb 0.00 in0.0 mm 0.00 in0.0 mm 0.00 in0.0 mm
05:31 AM 37.7°F3.2°C 42.1°F5.6°C 91% Calm Calm -- 29.66 in1004.4 mb 0.00 in0.0 mm 0.00 in0.0 mm 0.00 in0.0 mm
05:34 AM 38.0°F3.3°C 42.4°F5.8°C 92% Calm Calm -- 29.66 in1004.4 mb 0.00 in0.0 mm 0.00 in0.0 mm 0.00 in0.0 mm
05:37 AM 38.4°F3.6°C 42.6°F5.9°C 93% Calm Calm -- 29.66 in1004.4 mb 0.00 in0.0 mm 0.00 in0.0 mm 0.00 in0.0 mm
05:40 AM 38.4°F3.6°C 42.9°F6.1°C 93% Calm Calm -- 29.66 in1004.4 mb 0.00 in0.0 mm 0.00 in0.0 mm 0.00 in0.0 mm
05:43 AM 38.9°F3.8°C 43.0°F6.1°C 93% Calm Calm -- 29.65 in1004.1 mb 0.00 in0.0 mm 0.00 in0.0 mm 0.00 in0.0 mm
05:46 AM 39.4°F4.1°C 43.1°F6.2°C 93% Calm Calm -- 29.66 in1004.4 mb 0.00 in0.0 mm 0.00 in0.0 mm 0.00 in0.0 mm
05:49 AM 39.5°F4.2°C 43.5°F6.4°C 94% 1.6 mph SE2.6 kmh SE 1.6 mph2.6 kmh 29.64 in1003.7 mb 0.00 in0.0 mm 0.00 in0.0 mm 0.00 in0.0 mm
05:52 AM 40.0°F4.4°C 44.0°F6.7°C 94% Calm Calm -- 29.65 in1004.1 mb 0.00 in0.0 mm 0.00 in0.0 mm 0.00 in0.0 mm
05:55 AM 40.3°F4.6°C 44.0°F6.7°C 95% Calm Calm -- 29.65 in1004.1 mb 0.00 in0.0 mm 0.00 in0.0 mm 0.00 in0.0 mm
05:58 AM 40.6°F4.8°C 44.4°F6.9°C 95% Calm Calm -- 29.65 in1004.1 mb 0.00 in0.0 mm 0.00 in0.0 mm 0.00 in0.0 mm
06:01 AM 40.4°F4.7°C 44.5°F6.9°C 95% Calm Calm -- 29.64 in1003.7 mb 0.00 in0.0 mm 0.00 in0.0 mm 0.00 in0.0 mm
06:04 AM 41.0°F5.0°C 44.6°F7.0°C 95% 0.4 mph SE0.6 kmh SE 0.4 mph0.6 kmh 29.64 in1003.7 mb 0.00 in0.0 mm 0.00 in0.0 mm 0.00 in0.0 mm
06:07 AM 41.3°F5.2°C 44.9°F7.2°C 95% 1.6 mph SE2.6 kmh SE 1.6 mph2.6 kmh 29.64 in1003.7 mb 0.00 in0.0 mm 0.00 in0.0 mm 0.00 in0.0 mm
06:10 AM 41.6°F5.3°C 44.8°F7.1°C 94% Calm Calm -- 29.64 in1003.7 mb 0.00 in0.0 mm 0.00 in0.0 mm 0.00 in0.0 mm
06:13 AM 41.8°F5.4°C 45.3°F7.4°C 95% 0.4 mph SSE0.6 kmh SSE 0.4 mph0.6 kmh 29.64 in1003.7 mb 0.00 in0.0 mm 0.00 in0.0 mm 0.00 in0.0 mm
06:16 AM 41.6°F5.3°C 45.5°F7.5°C 95% 0.8 mph SE1.3 kmh SE 0.8 mph1.3 kmh 29.64 in1003.7 mb 0.00 in0.0 mm 0.00 in0.0 mm 0.00 in0.0 mm
06:19 AM 41.6°F5.3°C 45.4°F7.4°C 95% 1.2 mph NNW1.9 kmh NNW 1.2 mph1.9 kmh 29.64 in1003.7 mb 0.00 in0.0 mm 0.00 in0.0 mm 0.00 in0.0 mm
06:22 AM 41.6°F5.3°C 45.9°F7.7°C 96% Calm Calm -- 29.64 in1003.7 mb 0.00 in0.0 mm 0.00 in0.0 mm 0.00 in0.0 mm
06:25 AM 41.6°F5.3°C 45.8°F7.7°C 95% Calm Calm -- 29.64 in1003.7 mb 0.00 in0.0 mm 0.00 in0.0 mm 0.00 in0.0 mm
06:28 AM 41.7°F5.4°C 45.7°F7.6°C 95% Calm Calm -- 29.64 in1003.7 mb 0.00 in0.0 mm 0.00 in0.0 mm 0.00 in0.0 mm
06:31 AM 41.8°F5.4°C 45.9°F7.7°C 95% Calm Calm -- 29.64 in1003.7 mb 0.00 in0.0 mm 0.00 in0.0 mm 0.00 in0.0 mm
06:34 AM 41.7°F5.4°C 45.8°F7.7°C 95% Calm Calm -- 29.64 in1003.7 mb 0.00 in0.0 mm 0.00 in0.0 mm 0.00 in0.0 mm
06:37 AM 42.0°F5.6°C 46.0°F7.8°C 95% Calm Calm -- 29.64 in1003.7 mb 0.00 in0.0 mm 0.00 in0.0 mm 0.00 in0.0 mm
06:40 AM 41.9°F5.5°C 46.0°F7.8°C 95% Calm Calm -- 29.64 in1003.7 mb 0.00 in0.0 mm 0.00 in0.0 mm 0.00 in0.0 mm
06:43 AM 42.0°F5.6°C 46.1°F7.8°C 95% Calm Calm -- 29.64 in1003.7 mb 0.00 in0.0 mm 0.00 in0.0 mm 0.00 in0.0 mm
06:46 AM 42.0°F5.6°C 46.2°F7.9°C 95% Calm Calm -- 29.64 in1003.7 mb 0.00 in0.0 mm 0.00 in0.0 mm 0.00 in0.0 mm
06:52 AM 42.0°F5.6°C 46.3°F7.9°C 95% Calm Calm -- 29.64 in1003.7 mb 0.00 in0.0 mm 0.00 in0.0 mm 0.00 in0.0 mm
06:55 AM 42.1°F5.6°C 46.3°F7.9°C 95% Calm Calm -- 29.64 in1003.7 mb 0.00 in0.0 mm 0.00 in0.0 mm 0.00 in0.0 mm
06:58 AM 42.1°F5.6°C 46.3°F7.9°C 95% Calm Calm -- 29.64 in1003.7 mb 0.00 in0.0 mm 0.00 in0.0 mm 0.00 in0.0 mm
07:01 AM 42.1°F5.6°C 46.2°F7.9°C 94% Calm Calm -- 29.64 in1003.7 mb 0.00 in0.0 mm 0.00 in0.0 mm 0.00 in0.0 mm
07:04 AM 42.0°F5.6°C 46.3°F7.9°C 94% Calm Calm -- 29.65 in1004.1 mb 0.00 in0.0 mm 0.00 in0.0 mm 0.00 in0.0 mm
07:07 AM 42.0°F5.6°C 46.2°F7.9°C 94% Calm Calm -- 29.65 in1004.1 mb 0.00 in0.0 mm 0.00 in0.0 mm 0.00 in0.0 mm
07:10 AM 42.1°F5.6°C 46.2°F7.9°C 94% 0.4 mph SE0.6 kmh SE 0.4 mph0.6 kmh 29.64 in1003.7 mb 0.00 in0.0 mm 0.00 in0.0 mm 0.00 in0.0 mm
07:13 AM 42.1°F5.6°C 46.2°F7.9°C 94% 0.8 mph SE1.3 kmh SE 0.8 mph1.3 kmh 29.65 in1004.1 mb 0.00 in0.0 mm 0.00 in0.0 mm 0.00 in0.0 mm
07:16 AM 42.1°F5.6°C 46.2°F7.9°C 93% Calm Calm -- 29.65 in1004.1 mb 0.00 in0.0 mm 0.00 in0.0 mm 0.00 in0.0 mm
07:19 AM 42.1°F5.6°C 46.6°F8.1°C 95% Calm Calm -- 29.64 in1003.7 mb 0.00 in0.0 mm 0.00 in0.0 mm 0.00 in0.0 mm
07:22 AM 42.2°F5.7°C 46.4°F8.0°C 94% 0.8 mph SSE1.3 kmh SSE 0.8 mph1.3 kmh 29.65 in1004.1 mb 0.00 in0.0 mm 0.00 in0.0 mm 0.00 in0.0 mm
07:25 AM 42.2°F5.7°C 46.4°F8.0°C 94% 2.0 mph SE3.2 kmh SE 2.0 mph3.2 kmh 29.66 in1004.4 mb 0.00 in0.0 mm 0.00 in0.0 mm 0.00 in0.0 mm
07:28 AM 42.4°F5.8°C 46.2°F7.9°C 94% 1.2 mph SE1.9 kmh SE 1.2 mph1.9 kmh 29.66 in1004.4 mb 0.00 in0.0 mm 0.00 in0.0 mm 0.00 in0.0 mm
07:31 AM 42.4°F5.8°C 46.4°F8.0°C 94% 0.4 mph NNW0.6 kmh NNW 0.4 mph0.6 kmh 29.66 in1004.4 mb 0.00 in0.0 mm 0.00 in0.0 mm 0.00 in0.0 mm
07:34 AM 42.5°F5.8°C 46.6°F8.1°C 94% 0.4 mph SE0.6 kmh SE 0.4 mph0.6 kmh 29.66 in1004.4 mb 0.00 in0.0 mm 0.00 in0.0 mm 0.00 in0.0 mm
07:37 AM 42.5°F5.8°C 46.3°F7.9°C 94% Calm Calm -- 29.66 in1004.4 mb 0.00 in0.0 mm 0.00 in0.0 mm 0.00 in0.0 mm
07:40 AM 42.6°F5.9°C 46.6°F8.1°C 94% Calm Calm -- 29.66 in1004.4 mb 0.00 in0.0 mm 0.00 in0.0 mm 0.00 in0.0 mm
07:43 AM 42.6°F5.9°C 46.6°F8.1°C 94% Calm Calm -- 29.66 in1004.4 mb 0.00 in0.0 mm 0.00 in0.0 mm 0.00 in0.0 mm
07:46 AM 42.7°F5.9°C 46.7°F8.2°C 94% Calm Calm -- 29.66 in1004.4 mb 0.00 in0.0 mm 0.00 in0.0 mm 0.00 in0.0 mm
07:49 AM 42.8°F6.0°C 46.6°F8.1°C 94% Calm Calm -- 29.66 in1004.4 mb 0.00 in0.0 mm 0.00 in0.0 mm 0.00 in0.0 mm
07:52 AM 42.9°F6.1°C 46.3°F7.9°C 92% Calm Calm -- 29.66 in1004.4 mb 0.00 in0.0 mm 0.00 in0.0 mm 0.00 in0.0 mm
07:55 AM 43.0°F6.1°C 46.7°F8.2°C 94% Calm Calm -- 29.65 in1004.1 mb 0.00 in0.0 mm 0.00 in0.0 mm 0.00 in0.0 mm
07:58 AM 43.1°F6.2°C 47.1°F8.4°C 94% Calm Calm -- 29.65 in1004.1 mb 0.00 in0.0 mm 0.00 in0.0 mm 0.00 in0.0 mm
08:01 AM 43.5°F6.4°C 47.0°F8.3°C 95% 2.8 mph ESE4.5 kmh ESE 2.8 mph4.5 kmh 29.65 in1004.1 mb 0.00 in0.0 mm 0.00 in0.0 mm 0.00 in0.0 mm
08:04 AM 43.7°F6.5°C 47.3°F8.5°C 95% 1.6 mph SE2.6 kmh SE 1.6 mph2.6 kmh 29.66 in1004.4 mb 0.00 in0.0 mm 0.00 in0.0 mm 0.00 in0.0 mm
08:07 AM 43.7°F6.5°C 47.4°F8.6°C 94% Calm Calm -- 29.65 in1004.1 mb 0.00 in0.0 mm 0.00 in0.0 mm 0.02 in0.5 mm
08:10 AM 43.6°F6.4°C 47.5°F8.6°C 95% Calm Calm -- 29.66 in1004.4 mb 0.00 in0.0 mm 0.00 in0.0 mm 0.02 in0.5 mm
08:13 AM 43.7°F6.5°C 47.5°F8.6°C 94% 0.4 mph SE0.6 kmh SE 0.4 mph0.6 kmh 29.65 in1004.1 mb 0.00 in0.0 mm 0.00 in0.0 mm 0.02 in0.5 mm
08:16 AM 43.9°F6.6°C 47.4°F8.6°C 94% 0.4 mph SE0.6 kmh SE 0.4 mph0.6 kmh 29.64 in1003.7 mb 0.00 in0.0 mm 0.00 in0.0 mm 0.02 in0.5 mm
08:19 AM 44.2°F6.8°C 47.6°F8.7°C 95% 0.8 mph SE1.3 kmh SE 0.8 mph1.3 kmh 29.64 in1003.7 mb 0.00 in0.0 mm 0.00 in0.0 mm 0.02 in0.5 mm
08:22 AM 44.3°F6.8°C 47.9°F8.8°C 95% 1.2 mph SE1.9 kmh SE 1.2 mph1.9 kmh 29.64 in1003.7 mb 0.00 in0.0 mm 0.00 in0.0 mm 0.02 in0.5 mm
08:25 AM 44.5°F6.9°C 47.9°F8.8°C 95% 0.8 mph SE1.3 kmh SE 0.8 mph1.3 kmh 29.64 in1003.7 mb 0.00 in0.0 mm 0.00 in0.0 mm 0.02 in0.5 mm
08:28 AM 44.6°F7.0°C 48.1°F8.9°C 94% 1.6 mph SE2.6 kmh SE 1.6 mph2.6 kmh 29.64 in1003.7 mb 0.00 in0.0 mm 0.00 in0.0 mm 0.02 in0.5 mm
08:34 AM 44.8°F7.1°C 48.3°F9.1°C 95% 2.0 mph SE3.2 kmh SE 2.0 mph3.2 kmh 29.64 in1003.7 mb 0.00 in0.0 mm 0.00 in0.0 mm 0.02 in0.5 mm
08:37 AM 44.7°F7.1°C 48.3°F9.1°C 95% 0.4 mph SE0.6 kmh SE 0.4 mph0.6 kmh 29.64 in1003.7 mb 0.00 in0.0 mm 0.00 in0.0 mm 0.02 in0.5 mm
08:40 AM 44.7°F7.1°C 48.2°F9.0°C 94% Calm Calm -- 29.64 in1003.7 mb 0.00 in0.0 mm 0.00 in0.0 mm 0.02 in0.5 mm
08:43 AM 44.8°F7.1°C 48.3°F9.1°C 94% 0.4 mph SE0.6 kmh SE 0.4 mph0.6 kmh 29.64 in1003.7 mb 0.00 in0.0 mm 0.00 in0.0 mm 0.02 in0.5 mm
08:46 AM 44.9°F7.2°C 48.4°F9.1°C 94% Calm Calm -- 29.64 in1003.7 mb 0.00 in0.0 mm 0.00 in0.0 mm 0.02 in0.5 mm
08:49 AM 45.2°F7.3°C 48.4°F9.1°C 94% 0.4 mph SE0.6 kmh SE 0.4 mph0.6 kmh 29.63 in1003.4 mb 0.00 in0.0 mm 0.00 in0.0 mm 0.02 in0.5 mm
08:52 AM 45.3°F7.4°C 48.6°F9.2°C 94% Calm Calm -- 29.64 in1003.7 mb 0.00 in0.0 mm 0.00 in0.0 mm 0.02 in0.5 mm
08:55 AM 45.3°F7.4°C 48.4°F9.1°C 94% 1.2 mph SE1.9 kmh SE 1.2 mph1.9 kmh 29.64 in1003.7 mb 0.00 in0.0 mm 0.00 in0.0 mm 0.02 in0.5 mm
08:58 AM 45.3°F7.4°C 48.3°F9.1°C 94% 2.0 mph SE3.2 kmh SE 2.0 mph3.2 kmh 29.64 in1003.7 mb 0.00 in0.0 mm 0.00 in0.0 mm 0.02 in0.5 mm
09:01 AM 45.3°F7.4°C 48.5°F9.2°C 94% 2.0 mph SE3.2 kmh SE 2.0 mph3.2 kmh 29.64 in1003.7 mb 0.00 in0.0 mm 0.00 in0.0 mm 0.02 in0.5 mm
09:04 AM 45.3°F7.4°C 48.6°F9.2°C 94% 0.8 mph NNW1.3 kmh NNW 0.8 mph1.3 kmh 29.64 in1003.7 mb 0.00 in0.0 mm 0.00 in0.0 mm 0.02 in0.5 mm
09:07 AM 45.3°F7.4°C 48.5°F9.2°C 93% 1.6 mph NNW2.6 kmh NNW 1.6 mph2.6 kmh 29.64 in1003.7 mb 0.00 in0.0 mm 0.00 in0.0 mm 0.02 in0.5 mm
09:10 AM 45.4°F7.4°C 48.5°F9.2°C 94% 1.2 mph SE1.9 kmh SE 1.2 mph1.9 kmh 29.63 in1003.4 mb 0.00 in0.0 mm 0.00 in0.0 mm 0.02 in0.5 mm
09:13 AM 45.6°F7.6°C 48.5°F9.2°C 93% 1.6 mph NNW2.6 kmh NNW 1.6 mph2.6 kmh 29.63 in1003.4 mb 0.00 in0.0 mm 0.00 in0.0 mm 0.02 in0.5 mm
09:16 AM 45.7°F7.6°C 48.8°F9.3°C 93% Calm Calm -- 29.63 in1003.4 mb 0.00 in0.0 mm 0.00 in0.0 mm 0.02 in0.5 mm
09:19 AM 45.8°F7.7°C 48.8°F9.3°C 93% 0.4 mph SE0.6 kmh SE 0.4 mph0.6 kmh 29.63 in1003.4 mb 0.00 in0.0 mm 0.00 in0.0 mm 0.02 in0.5 mm
09:22 AM 46.1°F7.8°C 48.9°F9.4°C 93% 0.4 mph ESE0.6 kmh ESE 0.4 mph0.6 kmh 29.63 in1003.4 mb 0.00 in0.0 mm 0.00 in0.0 mm 0.02 in0.5 mm
09:25 AM 46.3°F7.9°C 49.0°F9.4°C 93% 2.0 mph ESE3.2 kmh ESE 2.0 mph3.2 kmh 29.62 in1003.0 mb 0.00 in0.0 mm 0.00 in0.0 mm 0.02 in0.5 mm
09:28 AM 47.0°F8.3°C 48.8°F9.3°C 93% Calm Calm -- 29.62 in1003.0 mb 0.00 in0.0 mm 0.00 in0.0 mm 0.02 in0.5 mm
09:31 AM 47.1°F8.4°C 49.3°F9.6°C 93% Calm Calm -- 29.62 in1003.0 mb 0.00 in0.0 mm 0.00 in0.0 mm 0.02 in0.5 mm
09:34 AM 47.1°F8.4°C 49.1°F9.5°C 93% 0.8 mph E1.3 kmh E 0.8 mph1.3 kmh 29.62 in1003.0 mb 0.00 in0.0 mm 0.00 in0.0 mm 0.02 in0.5 mm
09:37 AM 47.0°F8.3°C 48.8°F9.3°C 92% 0.8 mph SE1.3 kmh SE 0.8 mph1.3 kmh 29.62 in1003.0 mb 0.00 in0.0 mm 0.00 in0.0 mm 0.02 in0.5 mm
09:40 AM 46.9°F8.3°C 49.1°F9.5°C 92% Calm Calm -- 29.62 in1003.0 mb 0.00 in0.0 mm 0.00 in0.0 mm 0.02 in0.5 mm
09:43 AM 47.1°F8.4°C 49.1°F9.5°C 92% 2.4 mph SE3.9 kmh SE 2.4 mph3.9 kmh 29.62 in1003.0 mb 0.00 in0.0 mm 0.00 in0.0 mm 0.02 in0.5 mm
09:46 AM 47.2°F8.4°C 49.2°F9.6°C 92% 1.2 mph SE1.9 kmh SE 1.2 mph1.9 kmh 29.62 in1003.0 mb 0.00 in0.0 mm 0.00 in0.0 mm 0.02 in0.5 mm
09:49 AM 47.3°F8.5°C 49.1°F9.5°C 92% 0.4 mph SE0.6 kmh SE 0.4 mph0.6 kmh 29.62 in1003.0 mb 0.00 in0.0 mm 0.00 in0.0 mm 0.02 in0.5 mm
09:52 AM 47.5°F8.6°C 49.2°F9.6°C 91% 1.2 mph SE1.9 kmh SE 1.2 mph1.9 kmh 29.62 in1003.0 mb 0.00 in0.0 mm 0.00 in0.0 mm 0.02 in0.5 mm
09:55 AM 47.4°F8.6°C 49.2°F9.6°C 91% 2.0 mph SE3.2 kmh SE 2.0 mph3.2 kmh 29.62 in1003.0 mb 0.00 in0.0 mm 0.00 in0.0 mm 0.02 in0.5 mm
09:58 AM 47.4°F8.6°C 49.4°F9.7°C 91% 2.8 mph SE4.5 kmh SE 2.9 mph4.7 kmh 29.62 in1003.0 mb 0.00 in0.0 mm 0.00 in0.0 mm 0.02 in0.5 mm
10:01 AM 47.3°F8.5°C 49.2°F9.6°C 91% 2.0 mph SE3.2 kmh SE 2.0 mph3.2 kmh 29.62 in1003.0 mb 0.00 in0.0 mm 0.00 in0.0 mm 0.02 in0.5 mm
10:04 AM 47.2°F8.4°C 49.2°F9.6°C 91% 2.0 mph SE3.2 kmh SE 2.0 mph3.2 kmh 29.62 in1003.0 mb 0.00 in0.0 mm 0.00 in0.0 mm 0.02 in0.5 mm
10:07 AM 47.2°F8.4°C 49.3°F9.6°C 91% 0.8 mph SE1.3 kmh SE 0.8 mph1.3 kmh 29.62 in1003.0 mb 0.00 in0.0 mm 0.00 in0.0 mm 0.02 in0.5 mm
10:10 AM 47.3°F8.5°C 49.1°F9.5°C 90% 0.8 mph SE1.3 kmh SE 0.8 mph1.3 kmh 29.62 in1003.0 mb 0.00 in0.0 mm 0.00 in0.0 mm 0.02 in0.5 mm
10:13 AM 47.4°F8.6°C 49.1°F9.5°C 90% 1.6 mph SE2.6 kmh SE 1.6 mph2.6 kmh 29.62 in1003.0 mb 0.00 in0.0 mm 0.00 in0.0 mm 0.02 in0.5 mm
10:16 AM 47.5°F8.6°C 49.1°F9.5°C 90% 1.2 mph SE1.9 kmh SE 1.2 mph1.9 kmh 29.62 in1003.0 mb 0.00 in0.0 mm 0.00 in0.0 mm 0.02 in0.5 mm
10:19 AM 47.6°F8.7°C 49.2°F9.6°C 90% 3.2 mph SE5.1 kmh SE 3.3 mph5.3 kmh 29.62 in1003.0 mb 0.00 in0.0 mm 0.00 in0.0 mm 0.02 in0.5 mm
10:22 AM 47.8°F8.8°C 49.0°F9.4°C 89% 2.4 mph SE3.9 kmh SE 2.4 mph3.9 kmh 29.63 in1003.4 mb 0.00 in0.0 mm 0.00 in0.0 mm 0.02 in0.5 mm
10:25 AM 48.0°F8.9°C 49.2°F9.6°C 89% 1.2 mph SE1.9 kmh SE 1.2 mph1.9 kmh 29.63 in1003.4 mb 0.00 in0.0 mm 0.00 in0.0 mm 0.02 in0.5 mm
10:28 AM 48.2°F9.0°C 49.5°F9.7°C 90% 1.6 mph SE2.6 kmh SE 1.6 mph2.6 kmh 29.62 in1003.0 mb 0.00 in0.0 mm 0.00 in0.0 mm 0.02 in0.5 mm
10:31 AM 48.2°F9.0°C 49.2°F9.6°C 88% 1.2 mph NNW1.9 kmh NNW 1.2 mph1.9 kmh 29.62 in1003.0 mb 0.00 in0.0 mm 0.00 in0.0 mm 0.02 in0.5 mm
10:34 AM 48.3°F9.1°C 49.2°F9.6°C 89% 0.4 mph ESE0.6 kmh ESE 0.4 mph0.6 kmh 29.62 in1003.0 mb 0.00 in0.0 mm 0.00 in0.0 mm 0.02 in0.5 mm
10:37 AM 48.5°F9.2°C 49.0°F9.4°C 87% Calm Calm -- 29.62 in1003.0 mb 0.00 in0.0 mm 0.00 in0.0 mm 0.02 in0.5 mm
10:40 AM 48.8°F9.3°C 49.4°F9.7°C 88% Calm Calm -- 29.62 in1003.0 mb 0.00 in0.0 mm 0.00 in0.0 mm 0.02 in0.5 mm
10:43 AM 48.9°F9.4°C 49.3°F9.6°C 88% Calm Calm -- 29.62 in1003.0 mb 0.00 in0.0 mm 0.00 in0.0 mm 0.02 in0.5 mm
10:46 AM 48.9°F9.4°C 49.7°F9.8°C 88% 1.2 mph SE1.9 kmh SE 1.2 mph1.9 kmh 29.62 in1003.0 mb 0.00 in0.0 mm 0.00 in0.0 mm 0.02 in0.5 mm
10:49 AM 49.0°F9.4°C 49.4°F9.7°C 88% Calm Calm -- 29.62 in1003.0 mb 0.00 in0.0 mm 0.00 in0.0 mm 0.02 in0.5 mm
10:52 AM 49.2°F9.6°C 49.4°F9.7°C 88% Calm Calm -- 29.62 in1003.0 mb 0.00 in0.0 mm 0.00 in0.0 mm 0.02 in0.5 mm
10:55 AM 49.6°F9.8°C 49.9°F9.9°C 88% Calm Calm -- 29.62 in1003.0 mb 0.00 in0.0 mm 0.00 in0.0 mm 0.02 in0.5 mm
10:58 AM 49.9°F9.9°C 49.6°F9.8°C 87% 0.4 mph SE0.6 kmh SE 0.4 mph0.6 kmh 29.62 in1003.0 mb 0.00 in0.0 mm 0.00 in0.0 mm 0.02 in0.5 mm
11:01 AM 50.1°F10.1°C 49.7°F9.8°C 87% Calm Calm -- 29.62 in1003.0 mb 0.00 in0.0 mm 0.00 in0.0 mm 0.02 in0.5 mm
11:04 AM 50.0°F10.0°C 50.0°F10.0°C 87% Calm Calm -- 29.62 in1003.0 mb 0.00 in0.0 mm 0.00 in0.0 mm 0.02 in0.5 mm
11:07 AM 49.9°F9.9°C 49.7°F9.8°C 86% Calm Calm -- 29.62 in1003.0 mb 0.00 in0.0 mm 0.00 in0.0 mm 0.02 in0.5 mm
11:10 AM 49.8°F9.9°C 49.9°F9.9°C 86% Calm Calm -- 29.62 in1003.0 mb 0.00 in0.0 mm 0.00 in0.0 mm 0.02 in0.5 mm
11:13 AM 49.8°F9.9°C 50.0°F10.0°C 87% 1.6 mph SE2.6 kmh SE 1.6 mph2.6 kmh 29.62 in1003.0 mb 0.00 in0.0 mm 0.00 in0.0 mm 0.02 in0.5 mm
11:16 AM 49.4°F9.7°C 50.2°F10.1°C 87% Calm Calm -- 29.61 in1002.7 mb 0.00 in0.0 mm 0.00 in0.0 mm 0.02 in0.5 mm
11:22 AM 49.3°F9.6°C 49.9°F9.9°C 86% Calm Calm -- 29.62 in1003.0 mb 0.00 in0.0 mm 0.00 in0.0 mm 0.02 in0.5 mm
11:25 AM 49.9°F9.9°C 50.2°F10.1°C 87% Calm Calm -- 29.61 in1002.7 mb 0.00 in0.0 mm 0.00 in0.0 mm 0.02 in0.5 mm
11:28 AM 49.9°F9.9°C 50.2°F10.1°C 86% Calm Calm -- 29.61 in1002.7 mb 0.00 in0.0 mm 0.00 in0.0 mm 0.02 in0.5 mm
11:31 AM 50.1°F10.1°C 49.9°F9.9°C 85% Calm Calm -- 29.61 in1002.7 mb 0.00 in0.0 mm 0.00 in0.0 mm 0.02 in0.5 mm
11:34 AM 50.3°F10.2°C 50.1°F10.1°C 85% Calm Calm -- 29.61 in1002.7 mb 0.00 in0.0 mm 0.00 in0.0 mm 0.02 in0.5 mm
11:37 AM 50.1°F10.1°C 50.3°F10.2°C 86% Calm Calm -- 29.61 in1002.7 mb 0.00 in0.0 mm 0.00 in0.0 mm 0.02 in0.5 mm
11:40 AM 50.2°F10.1°C 50.1°F10.1°C 86% Calm Calm -- 29.60 in1002.4 mb 0.00 in0.0 mm 0.00 in0.0 mm 0.02 in0.5 mm
11:43 AM 50.6°F10.3°C 50.1°F10.1°C 86% Calm Calm -- 29.60 in1002.4 mb 0.00 in0.0 mm 0.00 in0.0 mm 0.02 in0.5 mm
11:46 AM 50.5°F10.3°C 50.3°F10.2°C 86% Calm Calm -- 29.60 in1002.4 mb 0.00 in0.0 mm 0.00 in0.0 mm 0.02 in0.5 mm
11:49 AM 50.2°F10.1°C 50.0°F10.0°C 84% Calm Calm -- 29.60 in1002.4 mb 0.00 in0.0 mm 0.00 in0.0 mm 0.02 in0.5 mm
11:52 AM 50.2°F10.1°C 50.5°F10.3°C 85% Calm Calm -- 29.61 in1002.7 mb 0.00 in0.0 mm 0.00 in0.0 mm 0.02 in0.5 mm
11:55 AM 50.1°F10.1°C 50.2°F10.1°C 85% Calm Calm -- 29.61 in1002.7 mb 0.00 in0.0 mm 0.00 in0.0 mm 0.02 in0.5 mm
11:58 AM 49.9°F9.9°C 50.3°F10.2°C 85% Calm Calm -- 29.60 in1002.4 mb 0.00 in0.0 mm 0.00 in0.0 mm 0.02 in0.5 mm
12:01 PM 49.9°F9.9°C 50.6°F10.3°C 85% Calm Calm -- 29.61 in1002.7 mb 0.00 in0.0 mm 0.00 in0.0 mm 0.02 in0.5 mm
12:04 PM 49.9°F9.9°C 50.5°F10.3°C 85% Calm Calm -- 29.60 in1002.4 mb 0.00 in0.0 mm 0.00 in0.0 mm 0.02 in0.5 mm
12:07 PM 50.2°F10.1°C 50.4°F10.2°C 85% Calm Calm -- 29.60 in1002.4 mb 0.00 in0.0 mm 0.00 in0.0 mm 0.02 in0.5 mm
12:10 PM 50.5°F10.3°C 50.9°F10.5°C 86% Calm Calm -- 29.60 in1002.4 mb 0.00 in0.0 mm 0.00 in0.0 mm 0.02 in0.5 mm
12:13 PM 50.5°F10.3°C 50.7°F10.4°C 86% Calm Calm -- 29.60 in1002.4 mb 0.00 in0.0 mm 0.00 in0.0 mm 0.02 in0.5 mm
12:16 PM 50.5°F10.3°C 50.7°F10.4°C 86% Calm Calm -- 29.60 in1002.4 mb 0.00 in0.0 mm 0.00 in0.0 mm 0.02 in0.5 mm
12:19 PM 50.1°F10.1°C 50.7°F10.4°C 86% Calm Calm -- 29.60 in1002.4 mb 0.00 in0.0 mm 0.00 in0.0 mm 0.02 in0.5 mm
12:22 PM 49.9°F9.9°C 50.6°F10.3°C 85% Calm Calm -- 29.60 in1002.4 mb 0.00 in0.0 mm 0.00 in0.0 mm 0.02 in0.5 mm
12:25 PM 50.0°F10.0°C 50.8°F10.4°C 85% Calm Calm -- 29.60 in1002.4 mb 0.00 in0.0 mm 0.00 in0.0 mm 0.02 in0.5 mm
12:28 PM 49.9°F9.9°C 50.6°F10.3°C 85% Calm Calm -- 29.60 in1002.4 mb 0.00 in0.0 mm 0.00 in0.0 mm 0.02 in0.5 mm
12:31 PM 49.9°F9.9°C 50.7°F10.4°C 85% Calm Calm -- 29.60 in1002.4 mb 0.00 in0.0 mm 0.00 in0.0 mm 0.02 in0.5 mm
12:34 PM 49.9°F9.9°C 51.1°F10.6°C 86% Calm Calm -- 29.60 in1002.4 mb 0.00 in0.0 mm 0.00 in0.0 mm 0.02 in0.5 mm
12:37 PM 49.8°F9.9°C 50.9°F10.5°C 86% Calm Calm -- 29.60 in1002.4 mb 0.00 in0.0 mm 0.00 in0.0 mm 0.02 in0.5 mm
12:40 PM 50.1°F10.1°C 50.9°F10.5°C 86% Calm Calm -- 29.60 in1002.4 mb 0.00 in0.0 mm 0.00 in0.0 mm 0.02 in0.5 mm
12:43 PM 50.0°F10.0°C 51.0°F10.6°C 86% Calm Calm -- 29.60 in1002.4 mb 0.00 in0.0 mm 0.00 in0.0 mm 0.02 in0.5 mm
12:46 PM 49.9°F9.9°C 51.3°F10.7°C 86% Calm Calm -- 29.60 in1002.4 mb 0.00 in0.0 mm 0.00 in0.0 mm 0.02 in0.5 mm
12:49 PM 49.9°F9.9°C 51.0°F10.6°C 86% Calm Calm -- 29.60 in1002.4 mb 0.00 in0.0 mm 0.00 in0.0 mm 0.02 in0.5 mm
12:52 PM 49.7°F9.8°C 51.0°F10.6°C 86% Calm Calm -- 29.60 in1002.4 mb 0.00 in0.0 mm 0.00 in0.0 mm 0.02 in0.5 mm
12:55 PM 49.8°F9.9°C 51.1°F10.6°C 86% Calm Calm -- 29.60 in1002.4 mb 0.00 in0.0 mm 0.00 in0.0 mm 0.02 in0.5 mm
12:58 PM 49.7°F9.8°C 51.1°F10.6°C 86% Calm Calm -- 29.60 in1002.4 mb 0.00 in0.0 mm 0.00 in0.0 mm 0.02 in0.5 mm
01:01 PM 49.6°F9.8°C 51.2°F10.7°C 86% Calm Calm -- 29.60 in1002.4 mb 0.00 in0.0 mm 0.00 in0.0 mm 0.02 in0.5 mm
01:04 PM 49.4°F9.7°C 51.3°F10.7°C 86% Calm Calm -- 29.60 in1002.4 mb 0.00 in0.0 mm 0.00 in0.0 mm 0.02 in0.5 mm
01:07 PM 49.3°F9.6°C 51.3°F10.7°C 86% Calm Calm -- 29.60 in1002.4 mb 0.00 in0.0 mm 0.00 in0.0 mm 0.02 in0.5 mm
01:10 PM 49.2°F9.6°C 51.2°F10.7°C 87% Calm Calm -- 29.60 in1002.4 mb 0.00 in0.0 mm 0.00 in0.0 mm 0.02 in0.5 mm
01:13 PM 49.3°F9.6°C 51.4°F10.8°C 86% Calm Calm -- 29.60 in1002.4 mb 0.00 in0.0 mm 0.00 in0.0 mm 0.02 in0.5 mm
01:16 PM 49.2°F9.6°C 51.0°F10.6°C 87% Calm Calm -- 29.60 in1002.4 mb 0.00 in0.0 mm 0.00 in0.0 mm 0.02 in0.5 mm
01:19 PM 49.1°F9.5°C 51.2°F10.7°C 86% Calm Calm -- 29.60 in1002.4 mb 0.00 in0.0 mm 0.00 in0.0 mm 0.02 in0.5 mm
01:22 PM 49.1°F9.5°C 51.1°F10.6°C 87% Calm Calm -- 29.60 in1002.4 mb 0.00 in0.0 mm 0.00 in0.0 mm 0.04 in1.0 mm
01:25 PM 49.0°F9.4°C 51.1°F10.6°C 86% Calm Calm -- 29.60 in1002.4 mb 0.00 in0.0 mm 0.00 in0.0 mm 0.04 in1.0 mm
01:28 PM 49.1°F9.5°C 51.3°F10.7°C 87% Calm Calm -- 29.60 in1002.4 mb 0.00 in0.0 mm 0.00 in0.0 mm 0.04 in1.0 mm
01:31 PM 49.1°F9.5°C 51.5°F10.8°C 87% Calm Calm -- 29.60 in1002.4 mb 0.00 in0.0 mm 0.00 in0.0 mm 0.04 in1.0 mm
01:34 PM 49.1°F9.5°C 51.6°F10.9°C 87% Calm Calm -- 29.60 in1002.4 mb 0.00 in0.0 mm 0.00 in0.0 mm 0.04 in1.0 mm
01:37 PM 49.0°F9.4°C 51.5°F10.8°C 88% Calm Calm -- 29.60 in1002.4 mb 0.00 in0.0 mm 0.00 in0.0 mm 0.06 in1.5 mm
01:40 PM 49.0°F9.4°C 51.1°F10.6°C 87% Calm Calm -- 29.60 in1002.4 mb 0.00 in0.0 mm 0.00 in0.0 mm 0.06 in1.5 mm
01:43 PM 49.0°F9.4°C 51.8°F11.0°C 88% Calm Calm -- 29.60 in1002.4 mb 0.00 in0.0 mm 0.00 in0.0 mm 0.06 in1.5 mm
01:46 PM 48.9°F9.4°C 51.7°F10.9°C 88% Calm Calm -- 29.60 in1002.4 mb 0.00 in0.0 mm 0.00 in0.0 mm 0.06 in1.5 mm
01:49 PM 49.0°F9.4°C 51.5°F10.8°C 88% Calm Calm -- 29.60 in1002.4 mb 0.00 in0.0 mm 0.00 in0.0 mm 0.06 in1.5 mm
01:52 PM 49.0°F9.4°C 51.7°F10.9°C 88% Calm Calm -- 29.60 in1002.4 mb 0.00 in0.0 mm 0.00 in0.0 mm 0.06 in1.5 mm
01:55 PM 49.0°F9.4°C 51.2°F10.7°C 87% Calm Calm -- 29.60 in1002.4 mb 0.00 in0.0 mm 0.00 in0.0 mm 0.06 in1.5 mm
01:58 PM 48.8°F9.3°C 51.5°F10.8°C 88% Calm Calm -- 29.60 in1002.4 mb 0.00 in0.0 mm 0.00 in0.0 mm 0.06 in1.5 mm
02:01 PM 48.9°F9.4°C 51.8°F11.0°C 88% Calm Calm -- 29.60 in1002.4 mb 0.00 in0.0 mm 0.00 in0.0 mm 0.08 in2.0 mm
02:04 PM 48.8°F9.3°C 51.6°F10.9°C 88% Calm Calm -- 29.60 in1002.4 mb 0.00 in0.0 mm 0.00 in0.0 mm 0.08 in2.0 mm
02:07 PM 48.9°F9.4°C 51.5°F10.8°C 88% Calm Calm -- 29.60 in1002.4 mb 0.00 in0.0 mm 0.00 in0.0 mm 0.08 in2.0 mm
02:10 PM 48.8°F9.3°C 51.8°F11.0°C 88% Calm Calm -- 29.60 in1002.4 mb 0.00 in0.0 mm 0.00 in0.0 mm 0.08 in2.0 mm
02:13 PM 48.7°F9.3°C 51.8°F11.0°C 89% Calm Calm -- 29.60 in1002.4 mb 0.00 in0.0 mm 0.00 in0.0 mm 0.08 in2.0 mm
02:16 PM 48.7°F9.3°C 51.6°F10.9°C 89% Calm Calm -- 29.60 in1002.4 mb 0.00 in0.0 mm 0.00 in0.0 mm 0.08 in2.0 mm
02:19 PM 48.7°F9.3°C 51.9°F11.1°C 89% Calm Calm -- 29.60 in1002.4 mb 0.00 in0.0 mm 0.00 in0.0 mm 0.10 in2.5 mm
02:22 PM 48.7°F9.3°C 51.8°F11.0°C 88% Calm Calm -- 29.60 in1002.4 mb 0.00 in0.0 mm 0.00 in0.0 mm 0.10 in2.5 mm
02:25 PM 48.7°F9.3°C 51.9°F11.1°C 89% Calm Calm -- 29.60 in1002.4 mb 0.00 in0.0 mm 0.00 in0.0 mm 0.10 in2.5 mm
02:28 PM 48.7°F9.3°C 51.9°F11.1°C 89% Calm Calm -- 29.60 in1002.4 mb 0.00 in0.0 mm 0.00 in0.0 mm 0.10 in2.5 mm
02:31 PM 48.7°F9.3°C 51.9°F11.1°C 89% Calm Calm -- 29.60 in1002.4 mb 0.00 in0.0 mm 0.00 in0.0 mm 0.10 in2.5 mm
02:34 PM 48.7°F9.3°C 51.7°F10.9°C 88% Calm Calm -- 29.60 in1002.4 mb 0.00 in0.0 mm 0.00 in0.0 mm 0.12 in3.0 mm
02:37 PM 48.5°F9.2°C 51.9°F11.1°C 89% Calm Calm -- 29.60 in1002.4 mb 0.00 in0.0 mm 0.00 in0.0 mm 0.14 in3.6 mm
02:40 PM 48.4°F9.1°C 52.0°F11.1°C 89% 0.4 mph 0.6 kmh 0.4 mph0.6 kmh 29.60 in1002.4 mb 0.00 in0.0 mm 0.00 in0.0 mm 0.14 in3.6 mm
02:43 PM 48.3°F9.1°C 51.7°F10.9°C 89% 1.6 mph NNW2.6 kmh NNW 1.6 mph2.6 kmh 29.60 in1002.4 mb 0.00 in0.0 mm 0.00 in0.0 mm 0.16 in4.1 mm
02:46 PM 48.2°F9.0°C 52.1°F11.2°C 89% 1.2 mph 1.9 kmh 1.2 mph1.9 kmh 29.61 in1002.7 mb 0.00 in0.0 mm 0.00 in0.0 mm 0.16 in4.1 mm
02:49 PM 48.2°F9.0°C 51.7°F10.9°C 89% 0.4 mph NNW0.6 kmh NNW 0.4 mph0.6 kmh 29.61 in1002.7 mb 0.00 in0.0 mm 0.00 in0.0 mm 0.18 in4.6 mm
02:52 PM 48.3°F9.1°C 51.9°F11.1°C 89% Calm Calm -- 29.61 in1002.7 mb 0.00 in0.0 mm 0.00 in0.0 mm 0.18 in4.6 mm
02:55 PM 48.2°F9.0°C 52.0°F11.1°C 90% 0.8 mph NNW1.3 kmh NNW 0.8 mph1.3 kmh 29.62 in1003.0 mb 0.00 in0.0 mm 0.00 in0.0 mm 0.18 in4.6 mm
02:58 PM 48.1°F8.9°C 51.7°F10.9°C 90% 2.8 mph NNW4.5 kmh NNW 2.8 mph4.5 kmh 29.62 in1003.0 mb 0.00 in0.0 mm 0.00 in0.0 mm 0.20 in5.1 mm
03:01 PM 48.1°F8.9°C 51.9°F11.1°C 90% 1.6 mph 2.6 kmh 1.6 mph2.6 kmh 29.62 in1003.0 mb 0.00 in0.0 mm 0.00 in0.0 mm 0.20 in5.1 mm
03:04 PM 48.2°F9.0°C 51.7°F10.9°C 90% 1.6 mph NW2.6 kmh NW 1.6 mph2.6 kmh 29.62 in1003.0 mb 0.00 in0.0 mm 0.00 in0.0 mm 0.20 in5.1 mm
03:07 PM 48.1°F8.9°C 51.8°F11.0°C 90% 1.2 mph NNW1.9 kmh NNW 1.2 mph1.9 kmh 29.62 in1003.0 mb 0.00 in0.0 mm 0.00 in0.0 mm 0.20 in5.1 mm
03:10 PM 48.1°F8.9°C 52.0°F11.1°C 90% 2.4 mph NW3.9 kmh NW 2.4 mph3.9 kmh 29.62 in1003.0 mb 0.00 in0.0 mm 0.00 in0.0 mm 0.20 in5.1 mm
03:13 PM 48.1°F8.9°C 51.7°F10.9°C 90% 4.4 mph NNW7.1 kmh NNW 4.4 mph7.1 kmh 29.62 in1003.0 mb 0.00 in0.0 mm 0.00 in0.0 mm 0.20 in5.1 mm
03:16 PM 48.1°F8.9°C 51.8°F11.0°C 90% 4.8 mph NNW7.7 kmh NNW 4.8 mph7.7 kmh 29.62 in1003.0 mb 0.00 in0.0 mm 0.00 in0.0 mm 0.20 in5.1 mm
03:19 PM 47.9°F8.8°C 51.6°F10.9°C 89% 2.0 mph NW3.2 kmh NW 2.0 mph3.2 kmh 29.62 in1003.0 mb 0.00 in0.0 mm 0.00 in0.0 mm 0.20 in5.1 mm
03:22 PM 47.8°F8.8°C 51.3°F10.7°C 89% 4.4 mph NNW7.1 kmh NNW 4.5 mph7.2 kmh 29.62 in1003.0 mb 0.00 in0.0 mm 0.00 in0.0 mm 0.20 in5.1 mm
03:25 PM 47.5°F8.6°C 51.1°F10.6°C 89% 5.2 mph NNW8.4 kmh NNW 5.2 mph8.4 kmh 29.63 in1003.4 mb 0.00 in0.0 mm 0.00 in0.0 mm 0.20 in5.1 mm
03:28 PM 47.4°F8.6°C 51.0°F10.6°C 88% 4.0 mph 6.4 kmh 4.1 mph6.6 kmh 29.63 in1003.4 mb 0.00 in0.0 mm 0.00 in0.0 mm 0.22 in5.6 mm
03:31 PM 47.2°F8.4°C 50.9°F10.5°C 88% 6.9 mph NNW11.1 kmh NNW 6.9 mph11.1 kmh 29.63 in1003.4 mb 0.00 in0.0 mm 0.00 in0.0 mm 0.22 in5.6 mm
03:34 PM 47.1°F8.4°C 50.6°F10.3°C 88% 2.0 mph W3.2 kmh W 2.0 mph3.2 kmh 29.63 in1003.4 mb 0.00 in0.0 mm 0.00 in0.0 mm 0.22 in5.6 mm
03:37 PM 46.9°F8.3°C 50.6°F10.3°C 88% 2.4 mph 3.9 kmh 2.4 mph3.9 kmh 29.64 in1003.7 mb 0.00 in0.0 mm 0.00 in0.0 mm 0.22 in5.6 mm
03:40 PM 46.7°F8.2°C 50.5°F10.3°C 88% 1.2 mph NNE1.9 kmh NNE 1.2 mph1.9 kmh 29.64 in1003.7 mb 0.00 in0.0 mm 0.00 in0.0 mm 0.22 in5.6 mm
03:43 PM 46.9°F8.3°C 50.2°F10.1°C 87% 3.2 mph 5.1 kmh 3.3 mph5.3 kmh 29.64 in1003.7 mb 0.00 in0.0 mm 0.00 in0.0 mm 0.22 in5.6 mm
03:46 PM 46.9°F8.3°C 50.4°F10.2°C 88% 3.6 mph 5.8 kmh 3.7 mph6.0 kmh 29.64 in1003.7 mb 0.00 in0.0 mm 0.00 in0.0 mm 0.24 in6.1 mm
03:49 PM 46.9°F8.3°C 50.3°F10.2°C 88% 5.2 mph NNW8.4 kmh NNW 5.2 mph8.4 kmh 29.64 in1003.7 mb 0.00 in0.0 mm 0.00 in0.0 mm 0.24 in6.1 mm
03:52 PM 46.9°F8.3°C 50.2°F10.1°C 88% 2.8 mph NNW4.5 kmh NNW 2.8 mph4.5 kmh 29.64 in1003.7 mb 0.00 in0.0 mm 0.00 in0.0 mm 0.24 in6.1 mm
03:55 PM 47.0°F8.3°C 50.0°F10.0°C 87% 2.4 mph 3.9 kmh 2.4 mph3.9 kmh 29.65 in1004.1 mb 0.00 in0.0 mm 0.00 in0.0 mm 0.24 in6.1 mm
03:58 PM 47.0°F8.3°C 50.3°F10.2°C 87% 0.8 mph NNW1.3 kmh NNW 0.8 mph1.3 kmh 29.66 in1004.4 mb 0.00 in0.0 mm 0.00 in0.0 mm 0.24 in6.1 mm
04:01 PM 47.0°F8.3°C 49.7°F9.8°C 86% 3.1 mph 5.0 kmh 3.2 mph5.1 kmh 29.65 in1004.1 mb 0.00 in0.0 mm 0.00 in0.0 mm 0.24 in6.1 mm
04:04 PM 47.0°F8.3°C 49.5°F9.7°C 85% 2.4 mph NNE3.9 kmh NNE 2.4 mph3.9 kmh 29.66 in1004.4 mb 0.00 in0.0 mm 0.00 in0.0 mm 0.24 in6.1 mm
04:07 PM 46.6°F8.1°C 49.7°F9.8°C 86% 2.0 mph NW3.2 kmh NW 2.0 mph3.2 kmh 29.66 in1004.4 mb 0.00 in0.0 mm 0.00 in0.0 mm 0.26 in6.6 mm
04:10 PM 46.4°F8.0°C 49.4°F9.7°C 86% 3.2 mph NNW5.1 kmh NNW 3.2 mph5.1 kmh 29.66 in1004.4 mb 0.00 in0.0 mm 0.00 in0.0 mm 0.26 in6.6 mm
04:13 PM 46.3°F7.9°C 49.5°F9.7°C 86% 3.6 mph NNW5.8 kmh NNW 3.6 mph5.8 kmh 29.67 in1004.7 mb 0.00 in0.0 mm 0.00 in0.0 mm 0.26 in6.6 mm
04:16 PM 46.3°F7.9°C 49.1°F9.5°C 85% 2.8 mph 4.5 kmh 2.8 mph4.5 kmh 29.67 in1004.7 mb 0.00 in0.0 mm 0.00 in0.0 mm 0.26 in6.6 mm
04:19 PM 46.1°F7.8°C 49.2°F9.6°C 85% 1.2 mph NNW1.9 kmh NNW 1.2 mph1.9 kmh 29.67 in1004.7 mb 0.00 in0.0 mm 0.00 in0.0 mm 0.26 in6.6 mm
04:22 PM 46.0°F7.8°C 49.2°F9.6°C 86% 0.8 mph NNE1.3 kmh NNE 0.8 mph1.3 kmh 29.67 in1004.7 mb 0.00 in0.0 mm 0.00 in0.0 mm 0.26 in6.6 mm
04:25 PM 45.7°F7.6°C 49.3°F9.6°C 86% Calm Calm -- 29.67 in1004.7 mb 0.00 in0.0 mm 0.00 in0.0 mm 0.28 in7.1 mm
04:28 PM 45.7°F7.6°C 49.1°F9.5°C 86% 0.8 mph NE1.3 kmh NE 0.8 mph1.3 kmh 29.67 in1004.7 mb 0.00 in0.0 mm 0.00 in0.0 mm 0.28 in7.1 mm
04:31 PM 45.5°F7.5°C 49.3°F9.6°C 86% Calm Calm -- 29.67 in1004.7 mb 0.00 in0.0 mm 0.00 in0.0 mm 0.28 in7.1 mm
04:34 PM 45.6°F7.6°C 48.9°F9.4°C 85% 0.4 mph NNW0.6 kmh NNW 0.4 mph0.6 kmh 29.68 in1005.1 mb 0.00 in0.0 mm 0.00 in0.0 mm 0.28 in7.1 mm
04:37 PM 45.5°F7.5°C 49.0°F9.4°C 85% 2.0 mph NNW3.2 kmh NNW 2.0 mph3.2 kmh 29.69 in1005.4 mb 0.00 in0.0 mm 0.00 in0.0 mm 0.28 in7.1 mm
04:40 PM 45.4°F7.4°C 49.0°F9.4°C 85% Calm Calm -- 29.69 in1005.4 mb 0.00 in0.0 mm 0.00 in0.0 mm 0.28 in7.1 mm
04:43 PM 45.6°F7.6°C 48.9°F9.4°C 85% 2.0 mph NW3.2 kmh NW 2.0 mph3.2 kmh 29.69 in1005.4 mb 0.00 in0.0 mm 0.00 in0.0 mm 0.28 in7.1 mm
04:46 PM 45.4°F7.4°C 48.8°F9.3°C 85% 3.2 mph NW5.1 kmh NW 3.3 mph5.3 kmh 29.69 in1005.4 mb 0.00 in0.0 mm 0.00 in0.0 mm 0.28 in7.1 mm
04:49 PM 45.4°F7.4°C 48.5°F9.2°C 84% 2.8 mph NW4.5 kmh NW 2.8 mph4.5 kmh 29.70 in1005.8 mb 0.00 in0.0 mm 0.00 in0.0 mm 0.28 in7.1 mm
04:52 PM 45.6°F7.6°C 47.9°F8.8°C 83% 2.0 mph 3.2 kmh 2.0 mph3.2 kmh 29.70 in1005.8 mb 0.00 in0.0 mm 0.00 in0.0 mm 0.28 in7.1 mm
04:55 PM 45.3°F7.4°C 47.9°F8.8°C 84% 5.2 mph NNW8.4 kmh NNW 5.3 mph8.5 kmh 29.70 in1005.8 mb 0.00 in0.0 mm 0.00 in0.0 mm 0.28 in7.1 mm
04:58 PM 45.5°F7.5°C 47.7°F8.7°C 83% 4.4 mph 7.1 kmh 4.4 mph7.1 kmh 29.70 in1005.8 mb 0.00 in0.0 mm 0.00 in0.0 mm 0.28 in7.1 mm
05:01 PM 44.9°F7.2°C 47.9°F8.8°C 84% 1.2 mph W1.9 kmh W 1.2 mph1.9 kmh 29.70 in1005.8 mb 0.00 in0.0 mm 0.00 in0.0 mm 0.28 in7.1 mm
05:04 PM 44.7°F7.1°C 47.9°F8.8°C 84% 0.8 mph WNW1.3 kmh WNW 0.8 mph1.3 kmh 29.70 in1005.8 mb 0.00 in0.0 mm 0.00 in0.0 mm 0.28 in7.1 mm
05:07 PM 44.7°F7.1°C 48.1°F8.9°C 85% 1.2 mph W1.9 kmh W 1.2 mph1.9 kmh 29.71 in1006.1 mb 0.00 in0.0 mm 0.00 in0.0 mm 0.28 in7.1 mm
05:10 PM 44.7°F7.1°C 48.4°F9.1°C 85% 2.0 mph NNW3.2 kmh NNW 2.0 mph3.2 kmh 29.72 in1006.4 mb 0.00 in0.0 mm 0.00 in0.0 mm 0.28 in7.1 mm
05:13 PM 44.6°F7.0°C 48.1°F8.9°C 85% 2.4 mph NNW3.9 kmh NNW 2.4 mph3.9 kmh 29.72 in1006.4 mb 0.00 in0.0 mm 0.00 in0.0 mm 0.30 in7.6 mm
05:16 PM 44.5°F6.9°C 48.2°F9.0°C 85% 0.8 mph W1.3 kmh W 0.8 mph1.3 kmh 29.72 in1006.4 mb 0.00 in0.0 mm 0.00 in0.0 mm 0.30 in7.6 mm
05:19 PM 44.4°F6.9°C 48.1°F8.9°C 85% 0.8 mph NNW1.3 kmh NNW 0.8 mph1.3 kmh 29.72 in1006.4 mb 0.00 in0.0 mm 0.00 in0.0 mm 0.30 in7.6 mm
05:22 PM 44.5°F6.9°C 48.1°F8.9°C 85% 0.8 mph NNW1.3 kmh NNW 0.8 mph1.3 kmh 29.72 in1006.4 mb 0.00 in0.0 mm 0.00 in0.0 mm 0.30 in7.6 mm
05:25 PM 44.4°F6.9°C 48.4°F9.1°C 86% Calm Calm -- 29.73 in1006.8 mb 0.00 in0.0 mm 0.00 in0.0 mm 0.30 in7.6 mm
05:28 PM 44.4°F6.9°C 48.3°F9.1°C 86% 0.4 mph NNW0.6 kmh NNW 0.4 mph0.6 kmh 29.73 in1006.8 mb 0.00 in0.0 mm 0.00 in0.0 mm 0.30 in7.6 mm
05:31 PM 44.5°F6.9°C 48.3°F9.1°C 86% Calm Calm -- 29.73 in1006.8 mb 0.00 in0.0 mm 0.00 in0.0 mm 0.30 in7.6 mm
05:34 PM 44.4°F6.9°C 47.9°F8.8°C 85% 1.2 mph NNW1.9 kmh NNW 1.2 mph1.9 kmh 29.73 in1006.8 mb 0.00 in0.0 mm 0.00 in0.0 mm 0.30 in7.6 mm
05:37 PM 44.4°F6.9°C 47.8°F8.8°C 86% 1.6 mph NNW2.6 kmh NNW 1.6 mph2.6 kmh 29.73 in1006.8 mb 0.00 in0.0 mm 0.00 in0.0 mm 0.30 in7.6 mm
05:40 PM 44.3°F6.8°C 48.3°F9.1°C 86% 1.2 mph NNW1.9 kmh NNW 1.2 mph1.9 kmh 29.73 in1006.8 mb 0.00 in0.0 mm 0.00 in0.0 mm 0.30 in7.6 mm
05:43 PM 44.3°F6.8°C 48.1°F8.9°C 86% 1.2 mph NNW1.9 kmh NNW 1.2 mph1.9 kmh 29.73 in1006.8 mb 0.00 in0.0 mm 0.00 in0.0 mm 0.30 in7.6 mm
05:46 PM 44.2°F6.8°C 48.3°F9.1°C 86% 1.2 mph NNW1.9 kmh NNW 1.2 mph1.9 kmh 29.74 in1007.1 mb 0.00 in0.0 mm 0.00 in0.0 mm 0.30 in7.6 mm
05:49 PM 44.3°F6.8°C 47.8°F8.8°C 86% Calm Calm -- 29.74 in1007.1 mb 0.00 in0.0 mm 0.00 in0.0 mm 0.32 in8.1 mm
05:52 PM 44.2°F6.8°C 47.9°F8.8°C 86% 0.4 mph NW0.6 kmh NW 0.4 mph0.6 kmh 29.74 in1007.1 mb 0.00 in0.0 mm 0.00 in0.0 mm 0.32 in8.1 mm
05:55 PM 44.2°F6.8°C 48.2°F9.0°C 86% Calm Calm -- 29.74 in1007.1 mb 0.00 in0.0 mm 0.00 in0.0 mm 0.32 in8.1 mm
05:58 PM 44.2°F6.8°C 47.8°F8.8°C 86% Calm Calm -- 29.74 in1007.1 mb 0.00 in0.0 mm 0.00 in0.0 mm 0.32 in8.1 mm
06:01 PM 44.2°F6.8°C 48.1°F8.9°C 86% Calm Calm -- 29.74 in1007.1 mb 0.00 in0.0 mm 0.00 in0.0 mm 0.32 in8.1 mm
06:04 PM 44.0°F6.7°C 48.1°F8.9°C 86% Calm Calm -- 29.74 in1007.1 mb 0.00 in0.0 mm 0.00 in0.0 mm 0.32 in8.1 mm
06:07 PM 44.0°F6.7°C 48.0°F8.9°C 86% Calm Calm -- 29.75 in1007.5 mb 0.00 in0.0 mm 0.00 in0.0 mm 0.32 in8.1 mm
06:10 PM 44.0°F6.7°C 48.1°F8.9°C 87% Calm Calm -- 29.75 in1007.5 mb 0.00 in0.0 mm 0.00 in0.0 mm 0.32 in8.1 mm
06:13 PM 44.0°F6.7°C 48.3°F9.1°C 87% Calm Calm -- 29.75 in1007.5 mb 0.00 in0.0 mm 0.00 in0.0 mm 0.32 in8.1 mm
06:16 PM 43.9°F6.6°C 48.2°F9.0°C 87% Calm Calm -- 29.75 in1007.5 mb 0.00 in0.0 mm 0.00 in0.0 mm 0.32 in8.1 mm
06:19 PM 43.7°F6.5°C 47.6°F8.7°C 85% Calm Calm -- 29.75 in1007.5 mb 0.00 in0.0 mm 0.00 in0.0 mm 0.32 in8.1 mm
06:22 PM 43.8°F6.6°C 47.8°F8.8°C 86% Calm Calm -- 29.76 in1007.8 mb 0.00 in0.0 mm 0.00 in0.0 mm 0.32 in8.1 mm
06:25 PM 43.7°F6.5°C 48.0°F8.9°C 87% Calm Calm -- 29.76 in1007.8 mb 0.00 in0.0 mm 0.00 in0.0 mm 0.32 in8.1 mm
06:28 PM 43.7°F6.5°C 47.6°F8.7°C 86% Calm Calm -- 29.76 in1007.8 mb 0.00 in0.0 mm 0.00 in0.0 mm 0.32 in8.1 mm
06:31 PM 43.7°F6.5°C 48.0°F8.9°C 87% Calm Calm -- 29.76 in1007.8 mb 0.00 in0.0 mm 0.00 in0.0 mm 0.32 in8.1 mm
06:34 PM 43.7°F6.5°C 48.1°F8.9°C 87% Calm Calm -- 29.76 in1007.8 mb 0.00 in0.0 mm 0.00 in0.0 mm 0.32 in8.1 mm
06:37 PM 43.6°F6.4°C 48.0°F8.9°C 87% Calm Calm -- 29.77 in1008.1 mb 0.00 in0.0 mm 0.00 in0.0 mm 0.32 in8.1 mm
06:40 PM 43.7°F6.5°C 48.1°F8.9°C 87% Calm Calm -- 29.77 in1008.1 mb 0.00 in0.0 mm 0.00 in0.0 mm 0.32 in8.1 mm
06:43 PM 43.6°F6.4°C 47.8°F8.8°C 87% Calm Calm -- 29.77 in1008.1 mb 0.00 in0.0 mm 0.00 in0.0 mm 0.32 in8.1 mm
06:46 PM 43.5°F6.4°C 47.9°F8.8°C 87% Calm Calm -- 29.77 in1008.1 mb 0.00 in0.0 mm 0.00 in0.0 mm 0.32 in8.1 mm
06:49 PM 43.5°F6.4°C 48.0°F8.9°C 88% Calm Calm -- 29.77 in1008.1 mb 0.00 in0.0 mm 0.00 in0.0 mm 0.32 in8.1 mm
06:52 PM 43.5°F6.4°C 48.0°F8.9°C 87% Calm Calm -- 29.77 in1008.1 mb 0.00 in0.0 mm 0.00 in0.0 mm 0.32 in8.1 mm
06:55 PM 43.5°F6.4°C 48.0°F8.9°C 87% Calm Calm -- 29.77 in1008.1 mb 0.00 in0.0 mm 0.00 in0.0 mm 0.34 in8.6 mm
06:58 PM 43.5°F6.4°C 47.8°F8.8°C 88% Calm Calm -- 29.77 in1008.1 mb 0.00 in0.0 mm 0.00 in0.0 mm 0.34 in8.6 mm
07:01 PM 43.5°F6.4°C 47.6°F8.7°C 87% 5.2 mph NNW8.4 kmh NNW 5.2 mph8.4 kmh 29.77 in1008.1 mb 0.00 in0.0 mm 0.00 in0.0 mm 0.34 in8.6 mm
07:04 PM 43.6°F6.4°C 47.6°F8.7°C 87% 2.4 mph NNW3.9 kmh NNW 2.4 mph3.9 kmh 29.78 in1008.5 mb 0.00 in0.0 mm 0.00 in0.0 mm 0.34 in8.6 mm
07:07 PM 43.5°F6.4°C 46.9°F8.3°C 86% 1.6 mph NNW2.6 kmh NNW 1.6 mph2.6 kmh 29.78 in1008.5 mb 0.00 in0.0 mm 0.00 in0.0 mm 0.34 in8.6 mm
07:10 PM 43.5°F6.4°C 47.0°F8.3°C 86% 4.0 mph 6.4 kmh 4.1 mph6.6 kmh 29.79 in1008.8 mb 0.00 in0.0 mm 0.00 in0.0 mm 0.34 in8.6 mm
07:13 PM 43.4°F6.3°C 46.9°F8.3°C 86% 4.0 mph 6.4 kmh 4.0 mph6.4 kmh 29.79 in1008.8 mb 0.00 in0.0 mm 0.00 in0.0 mm 0.34 in8.6 mm
07:16 PM 43.3°F6.3°C 46.6°F8.1°C 85% 2.8 mph 4.5 kmh 2.9 mph4.7 kmh 29.79 in1008.8 mb 0.00 in0.0 mm 0.00 in0.0 mm 0.34 in8.6 mm
07:19 PM 43.3°F6.3°C 46.4°F8.0°C 85% 2.8 mph 4.5 kmh 2.9 mph4.7 kmh 29.79 in1008.8 mb 0.00 in0.0 mm 0.00 in0.0 mm 0.34 in8.6 mm
07:22 PM 43.0°F6.1°C 46.6°F8.1°C 85% 0.4 mph 0.6 kmh 0.4 mph0.6 kmh 29.79 in1008.8 mb 0.00 in0.0 mm 0.00 in0.0 mm 0.34 in8.6 mm
07:25 PM 42.9°F6.1°C 46.5°F8.1°C 85% 0.4 mph NNW0.6 kmh NNW 0.4 mph0.6 kmh 29.79 in1008.8 mb 0.00 in0.0 mm 0.00 in0.0 mm 0.34 in8.6 mm
07:28 PM 42.9°F6.1°C 46.6°F8.1°C 86% Calm Calm -- 29.79 in1008.8 mb 0.00 in0.0 mm 0.00 in0.0 mm 0.34 in8.6 mm
07:31 PM 42.7°F5.9°C 46.4°F8.0°C 85% 1.2 mph NW1.9 kmh NW 1.2 mph1.9 kmh 29.79 in1008.8 mb 0.00 in0.0 mm 0.00 in0.0 mm 0.34 in8.6 mm
07:34 PM 42.7°F5.9°C 46.6°F8.1°C 86% Calm Calm -- 29.79 in1008.8 mb 0.00 in0.0 mm 0.00 in0.0 mm 0.34 in8.6 mm
07:37 PM 42.7°F5.9°C 46.2°F7.9°C 85% 1.2 mph NW1.9 kmh NW 1.2 mph1.9 kmh 29.79 in1008.8 mb 0.00 in0.0 mm 0.00 in0.0 mm 0.34 in8.6 mm
07:40 PM 42.6°F5.9°C 46.5°F8.1°C 85% 3.2 mph NNW5.1 kmh NNW 3.3 mph5.3 kmh 29.79 in1008.8 mb 0.00 in0.0 mm 0.00 in0.0 mm 0.34 in8.6 mm
07:43 PM 42.6°F5.9°C 46.0°F7.8°C 85% 4.4 mph NNE7.1 kmh NNE 4.4 mph7.1 kmh 29.79 in1008.8 mb 0.00 in0.0 mm 0.00 in0.0 mm 0.34 in8.6 mm
07:46 PM 42.7°F5.9°C 45.8°F7.7°C 84% 2.4 mph NW3.9 kmh NW 2.4 mph3.9 kmh 29.79 in1008.8 mb 0.00 in0.0 mm 0.00 in0.0 mm 0.34 in8.6 mm
07:49 PM 42.5°F5.8°C 45.9°F7.7°C 84% 3.2 mph NW5.1 kmh NW 3.2 mph5.1 kmh 29.79 in1008.8 mb 0.00 in0.0 mm 0.00 in0.0 mm 0.34 in8.6 mm
07:52 PM 42.5°F5.8°C 45.5°F7.5°C 84% 1.2 mph NW1.9 kmh NW 1.2 mph1.9 kmh 29.79 in1008.8 mb 0.00 in0.0 mm 0.00 in0.0 mm 0.34 in8.6 mm
07:55 PM 42.4°F5.8°C 45.2°F7.3°C 83% 3.2 mph NE5.1 kmh NE 3.2 mph5.1 kmh 29.79 in1008.8 mb 0.00 in0.0 mm 0.00 in0.0 mm 0.34 in8.6 mm
07:58 PM 42.1°F5.6°C 45.3°F7.4°C 84% 0.4 mph NNE0.6 kmh NNE 0.4 mph0.6 kmh 29.79 in1008.8 mb 0.00 in0.0 mm 0.00 in0.0 mm 0.34 in8.6 mm
08:01 PM 42.1°F5.6°C 45.3°F7.4°C 84% 3.6 mph NE5.8 kmh NE 3.6 mph5.8 kmh 29.80 in1009.1 mb 0.00 in0.0 mm 0.00 in0.0 mm 0.34 in8.6 mm
08:04 PM 42.2°F5.7°C 45.1°F7.3°C 83% 1.2 mph NNW1.9 kmh NNW 1.2 mph1.9 kmh 29.80 in1009.1 mb 0.00 in0.0 mm 0.00 in0.0 mm 0.34 in8.6 mm
08:07 PM 42.1°F5.6°C 44.9°F7.2°C 83% 0.4 mph 0.6 kmh 0.4 mph0.6 kmh 29.80 in1009.1 mb 0.00 in0.0 mm 0.00 in0.0 mm 0.34 in8.6 mm
08:10 PM 42.2°F5.7°C 44.7°F7.1°C 83% 2.4 mph 3.9 kmh 2.4 mph3.9 kmh 29.80 in1009.1 mb 0.00 in0.0 mm 0.00 in0.0 mm 0.34 in8.6 mm
08:13 PM 42.2°F5.7°C 44.8°F7.1°C 83% 2.4 mph NNW3.9 kmh NNW 2.4 mph3.9 kmh 29.80 in1009.1 mb 0.00 in0.0 mm 0.00 in0.0 mm 0.34 in8.6 mm
08:16 PM 42.1°F5.6°C 44.7°F7.1°C 82% 2.0 mph 3.2 kmh 2.0 mph3.2 kmh 29.80 in1009.1 mb 0.00 in0.0 mm 0.00 in0.0 mm 0.34 in8.6 mm
08:19 PM 42.1°F5.6°C 44.8°F7.1°C 83% Calm Calm -- 29.80 in1009.1 mb 0.00 in0.0 mm 0.00 in0.0 mm 0.34 in8.6 mm
08:22 PM 41.8°F5.4°C 44.8°F7.1°C 83% Calm Calm -- 29.80 in1009.1 mb 0.00 in0.0 mm 0.00 in0.0 mm 0.34 in8.6 mm
08:25 PM 41.5°F5.3°C 44.8°F7.1°C 83% Calm Calm -- 29.80 in1009.1 mb 0.00 in0.0 mm 0.00 in0.0 mm 0.34 in8.6 mm
08:28 PM 41.6°F5.3°C 45.0°F7.2°C 83% Calm Calm -- 29.80 in1009.1 mb 0.00 in0.0 mm 0.00 in0.0 mm 0.34 in8.6 mm
08:31 PM 41.6°F5.3°C 45.0°F7.2°C 84% Calm Calm -- 29.80 in1009.1 mb 0.00 in0.0 mm 0.00 in0.0 mm 0.34 in8.6 mm
08:34 PM 41.5°F5.3°C 44.4°F6.9°C 83% Calm Calm -- 29.81 in1009.5 mb 0.00 in0.0 mm 0.00 in0.0 mm 0.34 in8.6 mm
08:37 PM 41.5°F5.3°C 44.7°F7.1°C 84% Calm Calm -- 29.81 in1009.5 mb 0.00 in0.0 mm 0.00 in0.0 mm 0.34 in8.6 mm
08:40 PM 41.3°F5.2°C 45.1°F7.3°C 84% Calm Calm -- 29.81 in1009.5 mb 0.00 in0.0 mm 0.00 in0.0 mm 0.34 in8.6 mm
08:43 PM 41.2°F5.1°C 45.0°F7.2°C 84% Calm Calm -- 29.81 in1009.5 mb 0.00 in0.0 mm 0.00 in0.0 mm 0.34 in8.6 mm
08:46 PM 41.2°F5.1°C 45.3°F7.4°C 85% Calm Calm -- 29.81 in1009.5 mb 0.00 in0.0 mm 0.00 in0.0 mm 0.34 in8.6 mm
08:49 PM 41.2°F5.1°C 45.1°F7.3°C 85% Calm Calm -- 29.81 in1009.5 mb 0.00 in0.0 mm 0.00 in0.0 mm 0.34 in8.6 mm
08:52 PM 41.3°F5.2°C 45.3°F7.4°C 85% Calm Calm -- 29.81 in1009.5 mb 0.00 in0.0 mm 0.00 in0.0 mm 0.34 in8.6 mm
08:55 PM 41.3°F5.2°C 45.3°F7.4°C 85% 0.4 mph NW0.6 kmh NW 0.4 mph0.6 kmh 29.82 in1009.8 mb 0.00 in0.0 mm 0.00 in0.0 mm 0.34 in8.6 mm
08:58 PM 41.3°F5.2°C 45.3°F7.4°C 86% 1.2 mph NW1.9 kmh NW 1.2 mph1.9 kmh 29.82 in1009.8 mb 0.00 in0.0 mm 0.00 in0.0 mm 0.34 in8.6 mm
09:01 PM 41.5°F5.3°C 45.4°F7.4°C 86% Calm Calm -- 29.83 in1010.2 mb 0.00 in0.0 mm 0.00 in0.0 mm 0.34 in8.6 mm
09:04 PM 41.6°F5.3°C 45.4°F7.4°C 86% Calm Calm -- 29.83 in1010.2 mb 0.00 in0.0 mm 0.00 in0.0 mm 0.34 in8.6 mm
09:07 PM 41.6°F5.3°C 45.1°F7.3°C 85% Calm Calm -- 29.83 in1010.2 mb 0.00 in0.0 mm 0.00 in0.0 mm 0.34 in8.6 mm
09:10 PM 41.6°F5.3°C 45.4°F7.4°C 86% Calm Calm -- 29.83 in1010.2 mb 0.00 in0.0 mm 0.00 in0.0 mm 0.34 in8.6 mm
09:13 PM 41.6°F5.3°C 45.4°F7.4°C 87% Calm Calm -- 29.83 in1010.2 mb 0.00 in0.0 mm 0.00 in0.0 mm 0.34 in8.6 mm
09:16 PM 41.3°F5.2°C 45.4°F7.4°C 87% Calm Calm -- 29.83 in1010.2 mb 0.00 in0.0 mm 0.00 in0.0 mm 0.34 in8.6 mm
09:19 PM 41.3°F5.2°C 45.4°F7.4°C 87% Calm Calm -- 29.83 in1010.2 mb 0.00 in0.0 mm 0.00 in0.0 mm 0.34 in8.6 mm
09:22 PM 41.3°F5.2°C 45.6°F7.6°C 87% Calm Calm -- 29.83 in1010.2 mb 0.00 in0.0 mm 0.00 in0.0 mm 0.34 in8.6 mm
09:25 PM 41.3°F5.2°C 45.3°F7.4°C 86% Calm Calm -- 29.83 in1010.2 mb 0.00 in0.0 mm 0.00 in0.0 mm 0.34 in8.6 mm
09:28 PM 41.3°F5.2°C 45.6°F7.6°C 87% Calm Calm -- 29.83 in1010.2 mb 0.00 in0.0 mm 0.00 in0.0 mm 0.34 in8.6 mm
09:31 PM 41.3°F5.2°C 45.5°F7.5°C 87% Calm Calm -- 29.83 in1010.2 mb 0.00 in0.0 mm 0.00 in0.0 mm 0.34 in8.6 mm
09:34 PM 41.3°F5.2°C 45.4°F7.4°C 87% 0.4 mph NW0.6 kmh NW 0.4 mph0.6 kmh 29.83 in1010.2 mb 0.00 in0.0 mm 0.00 in0.0 mm 0.34 in8.6 mm
09:37 PM 41.3°F5.2°C 45.3°F7.4°C 87% 1.2 mph NW1.9 kmh NW 1.2 mph1.9 kmh 29.84 in1010.5 mb 0.00 in0.0 mm 0.00 in0.0 mm 0.34 in8.6 mm
09:40 PM 41.3°F5.2°C 45.2°F7.3°C 87% 0.8 mph NW1.3 kmh NW 0.8 mph1.3 kmh 29.84 in1010.5 mb 0.00 in0.0 mm 0.00 in0.0 mm 0.34 in8.6 mm
09:43 PM 41.3°F5.2°C 45.2°F7.3°C 87% Calm Calm -- 29.84 in1010.5 mb 0.00 in0.0 mm 0.00 in0.0 mm 0.34 in8.6 mm
09:46 PM 41.3°F5.2°C 45.2°F7.3°C 87% Calm Calm -- 29.84 in1010.5 mb 0.00 in0.0 mm 0.00 in0.0 mm 0.34 in8.6 mm
09:49 PM 41.2°F5.1°C 45.3°F7.4°C 87% Calm Calm -- 29.84 in1010.5 mb 0.00 in0.0 mm 0.00 in0.0 mm 0.34 in8.6 mm
09:52 PM 41.1°F5.1°C 45.2°F7.3°C 87% Calm Calm -- 29.84 in1010.5 mb 0.00 in0.0 mm 0.00 in0.0 mm 0.34 in8.6 mm
09:55 PM 41.1°F5.1°C 45.1°F7.3°C 86% Calm Calm -- 29.84 in1010.5 mb 0.00 in0.0 mm 0.00 in0.0 mm 0.34 in8.6 mm
10:01 PM 41.1°F5.1°C 45.1°F7.3°C 87% Calm Calm -- 29.84 in1010.5 mb 0.00 in0.0 mm 0.00 in0.0 mm 0.34 in8.6 mm
10:04 PM 41.0°F5.0°C 44.9°F7.2°C 86% Calm Calm -- 29.84 in1010.5 mb 0.00 in0.0 mm 0.00 in0.0 mm 0.34 in8.6 mm
10:07 PM 41.1°F5.1°C 45.1°F7.3°C 87% 2.0 mph NW3.2 kmh NW 2.0 mph3.2 kmh 29.84 in1010.5 mb 0.00 in0.0 mm 0.00 in0.0 mm 0.34 in8.6 mm
10:10 PM 41.0°F5.0°C 44.9°F7.2°C 87% 0.4 mph 0.6 kmh 0.4 mph0.6 kmh 29.84 in1010.5 mb 0.00 in0.0 mm 0.00 in0.0 mm 0.34 in8.6 mm
10:13 PM 41.0°F5.0°C 44.8°F7.1°C 87% Calm Calm -- 29.84 in1010.5 mb 0.00 in0.0 mm 0.00 in0.0 mm 0.34 in8.6 mm
10:16 PM 40.9°F4.9°C 44.8°F7.1°C 86% Calm Calm -- 29.84 in1010.5 mb 0.00 in0.0 mm 0.00 in0.0 mm 0.34 in8.6 mm
10:19 PM 40.8°F4.9°C 45.1°F7.3°C 87% 1.2 mph NNW1.9 kmh NNW 1.2 mph1.9 kmh 29.84 in1010.5 mb 0.00 in0.0 mm 0.00 in0.0 mm 0.34 in8.6 mm
10:22 PM 40.8°F4.9°C 45.0°F7.2°C 87% 0.4 mph NNW0.6 kmh NNW 0.4 mph0.6 kmh 29.84 in1010.5 mb 0.00 in0.0 mm 0.00 in0.0 mm 0.34 in8.6 mm
10:25 PM 40.9°F4.9°C 44.8°F7.1°C 87% Calm Calm -- 29.84 in1010.5 mb 0.00 in0.0 mm 0.00 in0.0 mm 0.34 in8.6 mm
10:28 PM 40.8°F4.9°C 44.8°F7.1°C 87% Calm Calm -- 29.84 in1010.5 mb 0.00 in0.0 mm 0.00 in0.0 mm 0.34 in8.6 mm
10:31 PM 40.8°F4.9°C 45.1°F7.3°C 87% Calm Calm -- 29.84 in1010.5 mb 0.00 in0.0 mm 0.00 in0.0 mm 0.34 in8.6 mm
10:34 PM 40.8°F4.9°C 45.1°F7.3°C 87% Calm Calm -- 29.85 in1010.8 mb 0.00 in0.0 mm 0.00 in0.0 mm 0.34 in8.6 mm
10:37 PM 40.7°F4.8°C 44.9°F7.2°C 87% Calm Calm -- 29.84 in1010.5 mb 0.00 in0.0 mm 0.00 in0.0 mm 0.34 in8.6 mm
10:43 PM 40.8°F4.9°C 44.9°F7.2°C 87% 0.4 mph WNW0.6 kmh WNW 0.4 mph0.6 kmh 29.85 in1010.8 mb 0.00 in0.0 mm 0.00 in0.0 mm 0.34 in8.6 mm
10:46 PM 40.8°F4.9°C 44.9°F7.2°C 87% Calm Calm -- 29.85 in1010.8 mb 0.00 in0.0 mm 0.00 in0.0 mm 0.34 in8.6 mm
10:49 PM 40.8°F4.9°C 45.1°F7.3°C 87% 1.2 mph NW1.9 kmh NW 1.2 mph1.9 kmh 29.84 in1010.5 mb 0.00 in0.0 mm 0.00 in0.0 mm 0.34 in8.6 mm
10:52 PM 40.8°F4.9°C 45.1°F7.3°C 87% Calm Calm -- 29.84 in1010.5 mb 0.00 in0.0 mm 0.00 in0.0 mm 0.34 in8.6 mm
10:55 PM 40.8°F4.9°C 44.7°F7.1°C 87% 0.8 mph NW1.3 kmh NW 0.8 mph1.3 kmh 29.85 in1010.8 mb 0.00 in0.0 mm 0.00 in0.0 mm 0.34 in8.6 mm
10:58 PM 40.7°F4.8°C 44.8°F7.1°C 87% Calm Calm -- 29.85 in1010.8 mb 0.00 in0.0 mm 0.00 in0.0 mm 0.34 in8.6 mm
11:01 PM 40.6°F4.8°C 44.7°F7.1°C 87% 0.8 mph NW1.3 kmh NW 0.8 mph1.3 kmh 29.85 in1010.8 mb 0.00 in0.0 mm 0.00 in0.0 mm 0.34 in8.6 mm
11:04 PM 40.6°F4.8°C 44.8°F7.1°C 87% Calm Calm -- 29.86 in1011.2 mb 0.00 in0.0 mm 0.00 in0.0 mm 0.34 in8.6 mm
11:07 PM 40.6°F4.8°C 44.6°F7.0°C 87% Calm Calm -- 29.85 in1010.8 mb 0.00 in0.0 mm 0.00 in0.0 mm 0.34 in8.6 mm
11:10 PM 40.4°F4.7°C 44.9°F7.2°C 87% Calm Calm -- 29.86 in1011.2 mb 0.00 in0.0 mm 0.00 in0.0 mm 0.34 in8.6 mm
11:13 PM 40.4°F4.7°C 44.8°F7.1°C 87% Calm Calm -- 29.85 in1010.8 mb 0.00 in0.0 mm 0.00 in0.0 mm 0.34 in8.6 mm
11:16 PM 40.4°F4.7°C 44.7°F7.1°C 86% Calm Calm -- 29.85 in1010.8 mb 0.00 in0.0 mm 0.00 in0.0 mm 0.34 in8.6 mm
11:19 PM 40.4°F4.7°C 44.7°F7.1°C 87% Calm Calm -- 29.85 in1010.8 mb 0.00 in0.0 mm 0.00 in0.0 mm 0.34 in8.6 mm
11:25 PM 40.3°F4.6°C 44.8°F7.1°C 88% Calm Calm -- 29.86 in1011.2 mb 0.00 in0.0 mm 0.00 in0.0 mm 0.34 in8.6 mm
11:28 PM 40.2°F4.6°C 44.5°F6.9°C 87% Calm Calm -- 29.86 in1011.2 mb 0.00 in0.0 mm 0.00 in0.0 mm 0.34 in8.6 mm
11:31 PM 40.2°F4.6°C 44.6°F7.0°C 87% Calm Calm -- 29.86 in1011.2 mb 0.00 in0.0 mm 0.00 in0.0 mm 0.34 in8.6 mm
11:34 PM 40.1°F4.5°C 44.5°F6.9°C 87% Calm Calm -- 29.86 in1011.2 mb 0.00 in0.0 mm 0.00 in0.0 mm 0.34 in8.6 mm
11:37 PM 40.2°F4.6°C 44.4°F6.9°C 87% Calm Calm -- 29.86 in1011.2 mb 0.00 in0.0 mm 0.00 in0.0 mm 0.34 in8.6 mm
11:40 PM 40.1°F4.5°C 44.7°F7.1°C 87% Calm Calm -- 29.86 in1011.2 mb 0.00 in0.0 mm 0.00 in0.0 mm 0.34 in8.6 mm
11:43 PM 40.1°F4.5°C 44.4°F6.9°C 87% Calm Calm -- 29.86 in1011.2 mb 0.00 in0.0 mm 0.00 in0.0 mm 0.34 in8.6 mm
11:46 PM 40.1°F4.5°C 44.6°F7.0°C 88% 1.2 mph NW1.9 kmh NW 1.2 mph1.9 kmh 29.86 in1011.2 mb 0.00 in0.0 mm 0.00 in0.0 mm 0.34 in8.6 mm
11:49 PM 40.1°F4.5°C 44.5°F6.9°C 87% 0.4 mph NW0.6 kmh NW 0.4 mph0.6 kmh 29.86 in1011.2 mb 0.00 in0.0 mm 0.00 in0.0 mm 0.34 in8.6 mm
11:52 PM 40.0°F4.4°C 44.6°F7.0°C 88% 0.4 mph NNW0.6 kmh NNW 0.4 mph0.6 kmh 29.86 in1011.2 mb 0.00 in0.0 mm 0.00 in0.0 mm 0.34 in8.6 mm
11:55 PM 40.1°F4.5°C 44.4°F6.9°C 87% Calm Calm -- 29.86 in1011.2 mb 0.00 in0.0 mm 0.00 in0.0 mm 0.34 in8.6 mm
11:58 PM 40.1°F4.5°C 44.3°F6.8°C 87% Calm Calm -- 29.86 in1011.2 mb 0.00 in0.0 mm 0.00 in0.0 mm 0.34 in8.6 mm